<?xml version="1.0" encoding="UTF-8" standalone="no" ?>
<gpx xmlns="http://www.topografix.com/GPX/1/1" xmlns:xsi="http://www.w3.org/2001/XMLSchema-instance" xsi:schemaLocation="http://www.topografix.com/GPX/1/1 http://www.topografix.com/GPX/1/1/gpx.xsd" version="1.1" creator="VisuGPX - https://www.visugpx.com">
  <metadata>
    <name>Balade transfrontalière entre Riedelberg et Walschbronn</name>
    <desc><![CDATA[Départ de Riedelberg (Allemagne) parking du Dorfgemeinschaftshaus, Schulstraße. Descendre vers la vallée du Hornbach qu’on longe rive droite vers la Riedelbergermühle, la Fischerhütte. Franchir la frontière vers le hameau de Dorst. Monter vers Riedelbergerwald et descendre vers Waldhouse jusqu’à la place de l’église. Remonter sur les hauteurs du Riedelbergerwald et la ferme de la tuilerie. Franchir la frontière. Arrivé à la route K81, tourner à gauche vers Riedelberg, voir le parc d’éoliennes.
http://www.clubvosgienbitche.fr/
]]></desc>
  </metadata>
  <trk>
    <name><![CDATA[Tracé 17 sept. 2017 09:13:05]]></name>
    <trkseg>
      <trkpt lat="49.17757" lon="7.44873">
        <ele>333.43277945721</ele>
        <time>2017-09-17T07:13:05Z</time>
      </trkpt>
      <trkpt lat="49.1776" lon="7.44869">
        <ele>335.29625751662</ele>
        <time>2017-09-17T07:13:18Z</time>
      </trkpt>
      <trkpt lat="49.17774" lon="7.4487">
        <ele>332.04785110615</ele>
        <time>2017-09-17T07:13:27Z</time>
      </trkpt>
      <trkpt lat="49.17781" lon="7.44861">
        <ele>317.90521404566</ele>
        <time>2017-09-17T07:13:42Z</time>
      </trkpt>
      <trkpt lat="49.1778" lon="7.44846">
        <ele>318.2059400109</ele>
        <time>2017-09-17T07:13:51Z</time>
      </trkpt>
      <trkpt lat="49.17777" lon="7.44824">
        <ele>318.43890068433</ele>
        <time>2017-09-17T07:14:01Z</time>
      </trkpt>
      <trkpt lat="49.17772" lon="7.44814">
        <ele>318.05651762554</ele>
        <time>2017-09-17T07:14:13Z</time>
      </trkpt>
      <trkpt lat="49.17768" lon="7.44802">
        <ele>318.76858111602</ele>
        <time>2017-09-17T07:14:22Z</time>
      </trkpt>
      <trkpt lat="49.17765" lon="7.44785">
        <ele>319.13040721522</ele>
        <time>2017-09-17T07:14:32Z</time>
      </trkpt>
      <trkpt lat="49.17761" lon="7.44767">
        <ele>318.7706377412</ele>
        <time>2017-09-17T07:14:41Z</time>
      </trkpt>
      <trkpt lat="49.17757" lon="7.44754">
        <ele>318.8095061362</ele>
        <time>2017-09-17T07:14:50Z</time>
      </trkpt>
      <trkpt lat="49.17758" lon="7.44733">
        <ele>318.76718256979</ele>
        <time>2017-09-17T07:14:59Z</time>
      </trkpt>
      <trkpt lat="49.17755" lon="7.44718">
        <ele>318.71654655353</ele>
        <time>2017-09-17T07:15:09Z</time>
      </trkpt>
      <trkpt lat="49.17754" lon="7.44703">
        <ele>319.47996329354</ele>
        <time>2017-09-17T07:15:18Z</time>
      </trkpt>
      <trkpt lat="49.17756" lon="7.44678">
        <ele>319.43101344111</ele>
        <time>2017-09-17T07:15:28Z</time>
      </trkpt>
      <trkpt lat="49.17754" lon="7.44662">
        <ele>318.70691246227</ele>
        <time>2017-09-17T07:15:37Z</time>
      </trkpt>
      <trkpt lat="49.17755" lon="7.44647">
        <ele>317.66833420788</ele>
        <time>2017-09-17T07:15:46Z</time>
      </trkpt>
      <trkpt lat="49.17754" lon="7.44634">
        <ele>317.04165855819</ele>
        <time>2017-09-17T07:15:55Z</time>
      </trkpt>
      <trkpt lat="49.17746" lon="7.44622">
        <ele>316.12298149509</ele>
        <time>2017-09-17T07:16:05Z</time>
      </trkpt>
      <trkpt lat="49.17736" lon="7.4462">
        <ele>315.19751894623</ele>
        <time>2017-09-17T07:16:14Z</time>
      </trkpt>
      <trkpt lat="49.17726" lon="7.44619">
        <ele>314.189177956</ele>
        <time>2017-09-17T07:16:24Z</time>
      </trkpt>
      <trkpt lat="49.17715" lon="7.4462">
        <ele>313.76388211151</ele>
        <time>2017-09-17T07:16:33Z</time>
      </trkpt>
      <trkpt lat="49.17702" lon="7.44621">
        <ele>313.61003264322</ele>
        <time>2017-09-17T07:16:42Z</time>
      </trkpt>
      <trkpt lat="49.17692" lon="7.44618">
        <ele>313.74245917787</ele>
        <time>2017-09-17T07:16:52Z</time>
      </trkpt>
      <trkpt lat="49.17681" lon="7.44616">
        <ele>313.58668356118</ele>
        <time>2017-09-17T07:17:01Z</time>
      </trkpt>
      <trkpt lat="49.17671" lon="7.44617">
        <ele>313.17536142754</ele>
        <time>2017-09-17T07:17:10Z</time>
      </trkpt>
      <trkpt lat="49.17662" lon="7.44614">
        <ele>312.69557286556</ele>
        <time>2017-09-17T07:17:20Z</time>
      </trkpt>
      <trkpt lat="49.17651" lon="7.44607">
        <ele>312.57965348106</ele>
        <time>2017-09-17T07:17:29Z</time>
      </trkpt>
      <trkpt lat="49.1764" lon="7.44601">
        <ele>312.50785280022</ele>
        <time>2017-09-17T07:17:38Z</time>
      </trkpt>
      <trkpt lat="49.1763" lon="7.44593">
        <ele>312.13914150703</ele>
        <time>2017-09-17T07:17:47Z</time>
      </trkpt>
      <trkpt lat="49.1762" lon="7.44583">
        <ele>311.72218469109</ele>
        <time>2017-09-17T07:17:57Z</time>
      </trkpt>
      <trkpt lat="49.17611" lon="7.44571">
        <ele>311.05662021772</ele>
        <time>2017-09-17T07:18:07Z</time>
      </trkpt>
      <trkpt lat="49.17602" lon="7.44562">
        <ele>310.53333626021</ele>
        <time>2017-09-17T07:18:16Z</time>
      </trkpt>
      <trkpt lat="49.1759" lon="7.44555">
        <ele>309.96436430306</ele>
        <time>2017-09-17T07:18:26Z</time>
      </trkpt>
      <trkpt lat="49.17582" lon="7.44548">
        <ele>309.71151328669</ele>
        <time>2017-09-17T07:18:33Z</time>
      </trkpt>
      <trkpt lat="49.17572" lon="7.44538">
        <ele>308.50969862262</ele>
        <time>2017-09-17T07:18:43Z</time>
      </trkpt>
      <trkpt lat="49.17561" lon="7.4453">
        <ele>306.43166682711</ele>
        <time>2017-09-17T07:18:52Z</time>
      </trkpt>
      <trkpt lat="49.17549" lon="7.4453">
        <ele>305.46090199092</ele>
        <time>2017-09-17T07:19:02Z</time>
      </trkpt>
      <trkpt lat="49.17537" lon="7.44527">
        <ele>305.66552658398</ele>
        <time>2017-09-17T07:19:12Z</time>
      </trkpt>
      <trkpt lat="49.17528" lon="7.44525">
        <ele>305.93482137942</ele>
        <time>2017-09-17T07:19:21Z</time>
      </trkpt>
      <trkpt lat="49.17518" lon="7.44518">
        <ele>306.56557805759</ele>
        <time>2017-09-17T07:19:31Z</time>
      </trkpt>
      <trkpt lat="49.17509" lon="7.44507">
        <ele>307.06797532979</ele>
        <time>2017-09-17T07:19:40Z</time>
      </trkpt>
      <trkpt lat="49.17502" lon="7.44496">
        <ele>307.03285711693</ele>
        <time>2017-09-17T07:19:50Z</time>
      </trkpt>
      <trkpt lat="49.17498" lon="7.44481">
        <ele>306.7903582938</ele>
        <time>2017-09-17T07:20:00Z</time>
      </trkpt>
      <trkpt lat="49.17493" lon="7.4447">
        <ele>305.68102835383</ele>
        <time>2017-09-17T07:20:09Z</time>
      </trkpt>
      <trkpt lat="49.1749" lon="7.44458">
        <ele>304.51756079225</ele>
        <time>2017-09-17T07:20:20Z</time>
      </trkpt>
      <trkpt lat="49.17486" lon="7.44446">
        <ele>303.6347610208</ele>
        <time>2017-09-17T07:20:30Z</time>
      </trkpt>
      <trkpt lat="49.17483" lon="7.44432">
        <ele>303.13001360758</ele>
        <time>2017-09-17T07:20:40Z</time>
      </trkpt>
      <trkpt lat="49.17476" lon="7.44419">
        <ele>302.46257496603</ele>
        <time>2017-09-17T07:20:50Z</time>
      </trkpt>
      <trkpt lat="49.17469" lon="7.44408">
        <ele>302.20491523576</ele>
        <time>2017-09-17T07:21:00Z</time>
      </trkpt>
      <trkpt lat="49.17465" lon="7.44395">
        <ele>300.69011928288</ele>
        <time>2017-09-17T07:21:10Z</time>
      </trkpt>
      <trkpt lat="49.17458" lon="7.44384">
        <ele>299.35189444336</ele>
        <time>2017-09-17T07:21:19Z</time>
      </trkpt>
      <trkpt lat="49.17456" lon="7.44371">
        <ele>295.30488272971</ele>
        <time>2017-09-17T07:21:43Z</time>
      </trkpt>
      <trkpt lat="49.17449" lon="7.44372">
        <ele>292.45981401841</ele>
        <time>2017-09-17T07:21:57Z</time>
      </trkpt>
      <trkpt lat="49.17442" lon="7.44366">
        <ele>291.5491149788</ele>
        <time>2017-09-17T07:22:07Z</time>
      </trkpt>
      <trkpt lat="49.17433" lon="7.44357">
        <ele>290.0399080485</ele>
        <time>2017-09-17T07:22:17Z</time>
      </trkpt>
      <trkpt lat="49.17424" lon="7.44344">
        <ele>288.30366488047</ele>
        <time>2017-09-17T07:22:27Z</time>
      </trkpt>
      <trkpt lat="49.17418" lon="7.44334">
        <ele>286.72450373764</ele>
        <time>2017-09-17T07:22:36Z</time>
      </trkpt>
      <trkpt lat="49.17406" lon="7.44326">
        <ele>284.56698946902</ele>
        <time>2017-09-17T07:22:46Z</time>
      </trkpt>
      <trkpt lat="49.17399" lon="7.44318">
        <ele>281.70307673911</ele>
        <time>2017-09-17T07:23:07Z</time>
      </trkpt>
      <trkpt lat="49.17391" lon="7.4431">
        <ele>279.5184629084</ele>
        <time>2017-09-17T07:23:19Z</time>
      </trkpt>
      <trkpt lat="49.17383" lon="7.44306">
        <ele>278.20753027718</ele>
        <time>2017-09-17T07:23:28Z</time>
      </trkpt>
      <trkpt lat="49.17374" lon="7.44298">
        <ele>277.52491643022</ele>
        <time>2017-09-17T07:23:37Z</time>
      </trkpt>
      <trkpt lat="49.17367" lon="7.4429">
        <ele>275.02272929788</ele>
        <time>2017-09-17T07:23:53Z</time>
      </trkpt>
      <trkpt lat="49.17358" lon="7.44281">
        <ele>273.07396724547</ele>
        <time>2017-09-17T07:24:03Z</time>
      </trkpt>
      <trkpt lat="49.17351" lon="7.44271">
        <ele>271.8092747311</ele>
        <time>2017-09-17T07:24:13Z</time>
      </trkpt>
      <trkpt lat="49.17343" lon="7.44269">
        <ele>270.47359802642</ele>
        <time>2017-09-17T07:24:23Z</time>
      </trkpt>
      <trkpt lat="49.17335" lon="7.44266">
        <ele>270.10265538607</ele>
        <time>2017-09-17T07:24:37Z</time>
      </trkpt>
      <trkpt lat="49.17327" lon="7.44261">
        <ele>269.64493451198</ele>
        <time>2017-09-17T07:24:46Z</time>
      </trkpt>
      <trkpt lat="49.17321" lon="7.44254">
        <ele>269.3288287628</ele>
        <time>2017-09-17T07:24:55Z</time>
      </trkpt>
      <trkpt lat="49.17314" lon="7.44247">
        <ele>268.58020409405</ele>
        <time>2017-09-17T07:25:05Z</time>
      </trkpt>
      <trkpt lat="49.17303" lon="7.4424">
        <ele>267.39499477892</ele>
        <time>2017-09-17T07:25:15Z</time>
      </trkpt>
      <trkpt lat="49.17297" lon="7.44237">
        <ele>265.35379947611</ele>
        <time>2017-09-17T07:25:27Z</time>
      </trkpt>
      <trkpt lat="49.17285" lon="7.44228">
        <ele>263.72174439969</ele>
        <time>2017-09-17T07:25:37Z</time>
      </trkpt>
      <trkpt lat="49.17277" lon="7.44219">
        <ele>262.3132488439</ele>
        <time>2017-09-17T07:25:46Z</time>
      </trkpt>
      <trkpt lat="49.1727" lon="7.44212">
        <ele>259.66887583576</ele>
        <time>2017-09-17T07:26:00Z</time>
      </trkpt>
      <trkpt lat="49.17259" lon="7.44211">
        <ele>258.13580821061</ele>
        <time>2017-09-17T07:26:10Z</time>
      </trkpt>
      <trkpt lat="49.17248" lon="7.44213">
        <ele>257.38547889363</ele>
        <time>2017-09-17T07:26:20Z</time>
      </trkpt>
      <trkpt lat="49.1724" lon="7.44215">
        <ele>257.10832590216</ele>
        <time>2017-09-17T07:26:31Z</time>
      </trkpt>
      <trkpt lat="49.1723" lon="7.44217">
        <ele>256.91473219356</ele>
        <time>2017-09-17T07:26:41Z</time>
      </trkpt>
      <trkpt lat="49.1722" lon="7.44217">
        <ele>256.54873757683</ele>
        <time>2017-09-17T07:26:50Z</time>
      </trkpt>
      <trkpt lat="49.17206" lon="7.44217">
        <ele>256.13581322355</ele>
        <time>2017-09-17T07:27:00Z</time>
      </trkpt>
      <trkpt lat="49.17187" lon="7.44217">
        <ele>256.15918494994</ele>
        <time>2017-09-17T07:27:09Z</time>
      </trkpt>
      <trkpt lat="49.17178" lon="7.44213">
        <ele>256.607757377</ele>
        <time>2017-09-17T07:27:19Z</time>
      </trkpt>
      <trkpt lat="49.17163" lon="7.44206">
        <ele>256.74825088685</ele>
        <time>2017-09-17T07:27:29Z</time>
      </trkpt>
      <trkpt lat="49.17148" lon="7.44203">
        <ele>256.62019565793</ele>
        <time>2017-09-17T07:27:39Z</time>
      </trkpt>
      <trkpt lat="49.17135" lon="7.44196">
        <ele>256.47815165159</ele>
        <time>2017-09-17T07:27:48Z</time>
      </trkpt>
      <trkpt lat="49.17124" lon="7.44187">
        <ele>256.51093594467</ele>
        <time>2017-09-17T07:27:58Z</time>
      </trkpt>
      <trkpt lat="49.17119" lon="7.44177">
        <ele>259.45893914242</ele>
        <time>2017-09-17T07:29:16Z</time>
      </trkpt>
      <trkpt lat="49.17111" lon="7.44171">
        <ele>260.96560654208</ele>
        <time>2017-09-17T07:29:27Z</time>
      </trkpt>
      <trkpt lat="49.17103" lon="7.44166">
        <ele>261.5648160426</ele>
        <time>2017-09-17T07:29:36Z</time>
      </trkpt>
      <trkpt lat="49.17093" lon="7.44157">
        <ele>261.08540978381</ele>
        <time>2017-09-17T07:29:46Z</time>
      </trkpt>
      <trkpt lat="49.17086" lon="7.44148">
        <ele>259.82047058402</ele>
        <time>2017-09-17T07:29:55Z</time>
      </trkpt>
      <trkpt lat="49.17077" lon="7.44136">
        <ele>258.09500866347</ele>
        <time>2017-09-17T07:30:05Z</time>
      </trkpt>
      <trkpt lat="49.17071" lon="7.44123">
        <ele>256.94759782118</ele>
        <time>2017-09-17T07:30:15Z</time>
      </trkpt>
      <trkpt lat="49.17065" lon="7.44114">
        <ele>256.0525495839</ele>
        <time>2017-09-17T07:30:24Z</time>
      </trkpt>
      <trkpt lat="49.17058" lon="7.44107">
        <ele>255.0356364995</ele>
        <time>2017-09-17T07:30:33Z</time>
      </trkpt>
      <trkpt lat="49.17048" lon="7.44095">
        <ele>253.82901083763</ele>
        <time>2017-09-17T07:30:43Z</time>
      </trkpt>
      <trkpt lat="49.1704" lon="7.44087">
        <ele>252.38797256723</ele>
        <time>2017-09-17T07:30:52Z</time>
      </trkpt>
      <trkpt lat="49.17034" lon="7.44077">
        <ele>250.85284849922</ele>
        <time>2017-09-17T07:31:02Z</time>
      </trkpt>
      <trkpt lat="49.17028" lon="7.44063">
        <ele>249.63432044926</ele>
        <time>2017-09-17T07:31:12Z</time>
      </trkpt>
      <trkpt lat="49.17023" lon="7.4405">
        <ele>249.17123499544</ele>
        <time>2017-09-17T07:31:21Z</time>
      </trkpt>
      <trkpt lat="49.17018" lon="7.44038">
        <ele>249.22514941871</ele>
        <time>2017-09-17T07:31:30Z</time>
      </trkpt>
      <trkpt lat="49.17013" lon="7.4402">
        <ele>249.04652901517</ele>
        <time>2017-09-17T07:31:39Z</time>
      </trkpt>
      <trkpt lat="49.17006" lon="7.44005">
        <ele>248.65834905249</ele>
        <time>2017-09-17T07:31:49Z</time>
      </trkpt>
      <trkpt lat="49.16998" lon="7.43991">
        <ele>248.1380535965</ele>
        <time>2017-09-17T07:31:59Z</time>
      </trkpt>
      <trkpt lat="49.16992" lon="7.43976">
        <ele>247.33905041057</ele>
        <time>2017-09-17T07:32:09Z</time>
      </trkpt>
      <trkpt lat="49.16987" lon="7.43963">
        <ele>246.76030511257</ele>
        <time>2017-09-17T07:32:18Z</time>
      </trkpt>
      <trkpt lat="49.16982" lon="7.43947">
        <ele>246.1281928476</ele>
        <time>2017-09-17T07:32:28Z</time>
      </trkpt>
      <trkpt lat="49.16976" lon="7.43931">
        <ele>245.67752243584</ele>
        <time>2017-09-17T07:32:37Z</time>
      </trkpt>
      <trkpt lat="49.16972" lon="7.43916">
        <ele>245.26915031087</ele>
        <time>2017-09-17T07:32:46Z</time>
      </trkpt>
      <trkpt lat="49.16969" lon="7.43902">
        <ele>244.82912851013</ele>
        <time>2017-09-17T07:32:55Z</time>
      </trkpt>
      <trkpt lat="49.16966" lon="7.43886">
        <ele>244.38253600728</ele>
        <time>2017-09-17T07:33:04Z</time>
      </trkpt>
      <trkpt lat="49.1696" lon="7.43872">
        <ele>243.47165221073</ele>
        <time>2017-09-17T07:33:14Z</time>
      </trkpt>
      <trkpt lat="49.16954" lon="7.43859">
        <ele>242.52033829385</ele>
        <time>2017-09-17T07:33:23Z</time>
      </trkpt>
      <trkpt lat="49.1695" lon="7.43848">
        <ele>241.76300435255</ele>
        <time>2017-09-17T07:33:32Z</time>
      </trkpt>
      <trkpt lat="49.16943" lon="7.43831">
        <ele>241.43103618914</ele>
        <time>2017-09-17T07:33:42Z</time>
      </trkpt>
      <trkpt lat="49.16941" lon="7.43819">
        <ele>242.8488207394</ele>
        <time>2017-09-17T07:33:51Z</time>
      </trkpt>
      <trkpt lat="49.16937" lon="7.43803">
        <ele>244.03094146358</ele>
        <time>2017-09-17T07:34:00Z</time>
      </trkpt>
      <trkpt lat="49.1693" lon="7.43786">
        <ele>244.35153413641</ele>
        <time>2017-09-17T07:34:10Z</time>
      </trkpt>
      <trkpt lat="49.16927" lon="7.43771">
        <ele>244.12130404141</ele>
        <time>2017-09-17T07:34:20Z</time>
      </trkpt>
      <trkpt lat="49.16923" lon="7.43756">
        <ele>243.74424098493</ele>
        <time>2017-09-17T07:34:29Z</time>
      </trkpt>
      <trkpt lat="49.16918" lon="7.43738">
        <ele>243.32595258961</ele>
        <time>2017-09-17T07:34:39Z</time>
      </trkpt>
      <trkpt lat="49.16912" lon="7.43722">
        <ele>242.39893350778</ele>
        <time>2017-09-17T07:34:49Z</time>
      </trkpt>
      <trkpt lat="49.16906" lon="7.43711">
        <ele>242.23611387177</ele>
        <time>2017-09-17T07:34:58Z</time>
      </trkpt>
      <trkpt lat="49.16904" lon="7.43699">
        <ele>243.40199502428</ele>
        <time>2017-09-17T07:35:08Z</time>
      </trkpt>
      <trkpt lat="49.16898" lon="7.43689">
        <ele>244.73764179489</ele>
        <time>2017-09-17T07:35:20Z</time>
      </trkpt>
      <trkpt lat="49.16893" lon="7.43678">
        <ele>246.67975254174</ele>
        <time>2017-09-17T07:35:34Z</time>
      </trkpt>
      <trkpt lat="49.16887" lon="7.43669">
        <ele>247.93950948492</ele>
        <time>2017-09-17T07:35:44Z</time>
      </trkpt>
      <trkpt lat="49.1688" lon="7.43655">
        <ele>249.13208457339</ele>
        <time>2017-09-17T07:35:54Z</time>
      </trkpt>
      <trkpt lat="49.16871" lon="7.43644">
        <ele>249.4584288028</ele>
        <time>2017-09-17T07:36:03Z</time>
      </trkpt>
      <trkpt lat="49.16865" lon="7.43634">
        <ele>249.22009757295</ele>
        <time>2017-09-17T07:36:13Z</time>
      </trkpt>
      <trkpt lat="49.1686" lon="7.43623">
        <ele>248.97826179109</ele>
        <time>2017-09-17T07:36:26Z</time>
      </trkpt>
      <trkpt lat="49.16857" lon="7.43611">
        <ele>249.35010016285</ele>
        <time>2017-09-17T07:36:38Z</time>
      </trkpt>
      <trkpt lat="49.16851" lon="7.43597">
        <ele>248.83742761574</ele>
        <time>2017-09-17T07:36:48Z</time>
      </trkpt>
      <trkpt lat="49.16847" lon="7.43585">
        <ele>248.57008471312</ele>
        <time>2017-09-17T07:36:57Z</time>
      </trkpt>
      <trkpt lat="49.16846" lon="7.43568">
        <ele>248.30934017486</ele>
        <time>2017-09-17T07:37:06Z</time>
      </trkpt>
      <trkpt lat="49.16842" lon="7.43553">
        <ele>248.07221657715</ele>
        <time>2017-09-17T07:37:15Z</time>
      </trkpt>
      <trkpt lat="49.16837" lon="7.43541">
        <ele>247.94165411237</ele>
        <time>2017-09-17T07:37:24Z</time>
      </trkpt>
      <trkpt lat="49.16831" lon="7.43523">
        <ele>248.80420670035</ele>
        <time>2017-09-17T07:37:34Z</time>
      </trkpt>
      <trkpt lat="49.1683" lon="7.4351">
        <ele>249.35210127378</ele>
        <time>2017-09-17T07:37:43Z</time>
      </trkpt>
      <trkpt lat="49.16826" lon="7.43493">
        <ele>249.69552749266</ele>
        <time>2017-09-17T07:37:53Z</time>
      </trkpt>
      <trkpt lat="49.16822" lon="7.43473">
        <ele>249.40888127632</ele>
        <time>2017-09-17T07:38:02Z</time>
      </trkpt>
      <trkpt lat="49.1682" lon="7.43453">
        <ele>248.4580228934</ele>
        <time>2017-09-17T07:38:11Z</time>
      </trkpt>
      <trkpt lat="49.16818" lon="7.4344">
        <ele>248.20443438497</ele>
        <time>2017-09-17T07:38:24Z</time>
      </trkpt>
      <trkpt lat="49.16808" lon="7.43429">
        <ele>247.94531347003</ele>
        <time>2017-09-17T07:38:33Z</time>
      </trkpt>
      <trkpt lat="49.16802" lon="7.43421">
        <ele>247.51873006498</ele>
        <time>2017-09-17T07:38:42Z</time>
      </trkpt>
      <trkpt lat="49.16791" lon="7.43409">
        <ele>247.61109330033</ele>
        <time>2017-09-17T07:38:52Z</time>
      </trkpt>
      <trkpt lat="49.16785" lon="7.43402">
        <ele>247.64521225741</ele>
        <time>2017-09-17T07:39:01Z</time>
      </trkpt>
      <trkpt lat="49.16773" lon="7.4339">
        <ele>248.75203534948</ele>
        <time>2017-09-17T07:39:10Z</time>
      </trkpt>
      <trkpt lat="49.16765" lon="7.43385">
        <ele>249.94890827127</ele>
        <time>2017-09-17T07:39:20Z</time>
      </trkpt>
      <trkpt lat="49.16749" lon="7.43377">
        <ele>251.2500959147</ele>
        <time>2017-09-17T07:39:30Z</time>
      </trkpt>
      <trkpt lat="49.16743" lon="7.43369">
        <ele>251.25921702015</ele>
        <time>2017-09-17T07:39:39Z</time>
      </trkpt>
      <trkpt lat="49.1673" lon="7.43365">
        <ele>250.91347982166</ele>
        <time>2017-09-17T07:39:49Z</time>
      </trkpt>
      <trkpt lat="49.16717" lon="7.43362">
        <ele>250.23979767765</ele>
        <time>2017-09-17T07:39:58Z</time>
      </trkpt>
      <trkpt lat="49.16708" lon="7.43363">
        <ele>250.44769912691</ele>
        <time>2017-09-17T07:40:07Z</time>
      </trkpt>
      <trkpt lat="49.16699" lon="7.43369">
        <ele>251.39461189348</ele>
        <time>2017-09-17T07:40:17Z</time>
      </trkpt>
      <trkpt lat="49.16691" lon="7.4337">
        <ele>251.53491890616</ele>
        <time>2017-09-17T07:40:26Z</time>
      </trkpt>
      <trkpt lat="49.16681" lon="7.43376">
        <ele>251.02612890249</ele>
        <time>2017-09-17T07:40:35Z</time>
      </trkpt>
      <trkpt lat="49.16666" lon="7.43383">
        <ele>250.43115418258</ele>
        <time>2017-09-17T07:40:45Z</time>
      </trkpt>
      <trkpt lat="49.16659" lon="7.43389">
        <ele>249.8268090201</ele>
        <time>2017-09-17T07:40:55Z</time>
      </trkpt>
      <trkpt lat="49.1665" lon="7.43404">
        <ele>250.05958101539</ele>
        <time>2017-09-17T07:41:05Z</time>
      </trkpt>
      <trkpt lat="49.1664" lon="7.43415">
        <ele>250.59397568176</ele>
        <time>2017-09-17T07:41:14Z</time>
      </trkpt>
      <trkpt lat="49.16632" lon="7.43425">
        <ele>250.89138327255</ele>
        <time>2017-09-17T07:41:24Z</time>
      </trkpt>
      <trkpt lat="49.16618" lon="7.43438">
        <ele>249.71551358954</ele>
        <time>2017-09-17T07:41:34Z</time>
      </trkpt>
      <trkpt lat="49.16609" lon="7.43447">
        <ele>247.90042296478</ele>
        <time>2017-09-17T07:41:44Z</time>
      </trkpt>
      <trkpt lat="49.16607" lon="7.43469">
        <ele>245.52898732328</ele>
        <time>2017-09-17T07:41:53Z</time>
      </trkpt>
      <trkpt lat="49.16602" lon="7.43482">
        <ele>244.28927800067</ele>
        <time>2017-09-17T07:42:02Z</time>
      </trkpt>
      <trkpt lat="49.16594" lon="7.43496">
        <ele>243.32855068465</ele>
        <time>2017-09-17T07:42:11Z</time>
      </trkpt>
      <trkpt lat="49.16589" lon="7.43511">
        <ele>242.5679430965</ele>
        <time>2017-09-17T07:42:21Z</time>
      </trkpt>
      <trkpt lat="49.16585" lon="7.43531">
        <ele>241.3853363398</ele>
        <time>2017-09-17T07:42:30Z</time>
      </trkpt>
      <trkpt lat="49.1658" lon="7.43547">
        <ele>241.24223861895</ele>
        <time>2017-09-17T07:42:39Z</time>
      </trkpt>
      <trkpt lat="49.16576" lon="7.43564">
        <ele>241.43322498868</ele>
        <time>2017-09-17T07:42:49Z</time>
      </trkpt>
      <trkpt lat="49.16574" lon="7.43579">
        <ele>241.28328855668</ele>
        <time>2017-09-17T07:42:58Z</time>
      </trkpt>
      <trkpt lat="49.16572" lon="7.43594">
        <ele>240.75818231707</ele>
        <time>2017-09-17T07:43:07Z</time>
      </trkpt>
      <trkpt lat="49.16568" lon="7.43612">
        <ele>240.3738570549</ele>
        <time>2017-09-17T07:43:17Z</time>
      </trkpt>
      <trkpt lat="49.16569" lon="7.43625">
        <ele>240.39349953763</ele>
        <time>2017-09-17T07:43:26Z</time>
      </trkpt>
      <trkpt lat="49.16579" lon="7.43633">
        <ele>241.28750916549</ele>
        <time>2017-09-17T07:43:36Z</time>
      </trkpt>
      <trkpt lat="49.16582" lon="7.43645">
        <ele>242.93970827811</ele>
        <time>2017-09-17T07:43:46Z</time>
      </trkpt>
      <trkpt lat="49.16582" lon="7.43657">
        <ele>244.36428625428</ele>
        <time>2017-09-17T07:43:56Z</time>
      </trkpt>
      <trkpt lat="49.16586" lon="7.43673">
        <ele>244.893472034</ele>
        <time>2017-09-17T07:44:05Z</time>
      </trkpt>
      <trkpt lat="49.16584" lon="7.43692">
        <ele>245.44199249283</ele>
        <time>2017-09-17T07:44:14Z</time>
      </trkpt>
      <trkpt lat="49.16589" lon="7.43718">
        <ele>246.52302262627</ele>
        <time>2017-09-17T07:44:24Z</time>
      </trkpt>
      <trkpt lat="49.1659" lon="7.43733">
        <ele>247.17877793709</ele>
        <time>2017-09-17T07:44:34Z</time>
      </trkpt>
      <trkpt lat="49.16587" lon="7.43744">
        <ele>247.11336956071</ele>
        <time>2017-09-17T07:44:47Z</time>
      </trkpt>
      <trkpt lat="49.1659" lon="7.4376">
        <ele>247.68364053901</ele>
        <time>2017-09-17T07:44:56Z</time>
      </trkpt>
      <trkpt lat="49.16591" lon="7.43782">
        <ele>248.17797609481</ele>
        <time>2017-09-17T07:45:06Z</time>
      </trkpt>
      <trkpt lat="49.16593" lon="7.43802">
        <ele>247.95804154576</ele>
        <time>2017-09-17T07:45:15Z</time>
      </trkpt>
      <trkpt lat="49.16593" lon="7.43821">
        <ele>247.58281573479</ele>
        <time>2017-09-17T07:45:25Z</time>
      </trkpt>
      <trkpt lat="49.16599" lon="7.43836">
        <ele>247.15511901954</ele>
        <time>2017-09-17T07:45:34Z</time>
      </trkpt>
      <trkpt lat="49.16598" lon="7.43857">
        <ele>247.55301397649</ele>
        <time>2017-09-17T07:45:43Z</time>
      </trkpt>
      <trkpt lat="49.16602" lon="7.4388">
        <ele>248.66607137428</ele>
        <time>2017-09-17T07:45:52Z</time>
      </trkpt>
      <trkpt lat="49.16603" lon="7.43891">
        <ele>249.37119626351</ele>
        <time>2017-09-17T07:45:59Z</time>
      </trkpt>
      <trkpt lat="49.16605" lon="7.43909">
        <ele>249.57944878942</ele>
        <time>2017-09-17T07:46:09Z</time>
      </trkpt>
      <trkpt lat="49.1661" lon="7.43923">
        <ele>249.32792557723</ele>
        <time>2017-09-17T07:46:19Z</time>
      </trkpt>
      <trkpt lat="49.16612" lon="7.43937">
        <ele>248.97086802672</ele>
        <time>2017-09-17T07:46:28Z</time>
      </trkpt>
      <trkpt lat="49.16615" lon="7.43952">
        <ele>248.54499155254</ele>
        <time>2017-09-17T07:46:37Z</time>
      </trkpt>
      <trkpt lat="49.16618" lon="7.43972">
        <ele>248.38124416799</ele>
        <time>2017-09-17T07:46:47Z</time>
      </trkpt>
      <trkpt lat="49.1662" lon="7.43984">
        <ele>248.87339364364</ele>
        <time>2017-09-17T07:47:02Z</time>
      </trkpt>
      <trkpt lat="49.16616" lon="7.43995">
        <ele>249.91593400284</ele>
        <time>2017-09-17T07:47:19Z</time>
      </trkpt>
      <trkpt lat="49.16612" lon="7.43983">
        <ele>253.2203796454</ele>
        <time>2017-09-17T07:50:24Z</time>
      </trkpt>
      <trkpt lat="49.16611" lon="7.43969">
        <ele>251.14473495196</ele>
        <time>2017-09-17T07:54:02Z</time>
      </trkpt>
      <trkpt lat="49.16612" lon="7.43956">
        <ele>255.44281880071</ele>
        <time>2017-09-17T08:01:29Z</time>
      </trkpt>
      <trkpt lat="49.16611" lon="7.43967">
        <ele>254.79821135149</ele>
        <time>2017-09-17T08:02:21Z</time>
      </trkpt>
      <trkpt lat="49.1661" lon="7.4398">
        <ele>253.87208576335</ele>
        <time>2017-09-17T08:02:38Z</time>
      </trkpt>
      <trkpt lat="49.1661" lon="7.43996">
        <ele>253.18759870716</ele>
        <time>2017-09-17T08:02:47Z</time>
      </trkpt>
      <trkpt lat="49.16617" lon="7.43988">
        <ele>251.97919121674</ele>
        <time>2017-09-17T08:02:58Z</time>
      </trkpt>
      <trkpt lat="49.16624" lon="7.43992">
        <ele>250.83098168507</ele>
        <time>2017-09-17T08:03:10Z</time>
      </trkpt>
      <trkpt lat="49.16639" lon="7.44009">
        <ele>249.45963467885</ele>
        <time>2017-09-17T08:03:19Z</time>
      </trkpt>
      <trkpt lat="49.16631" lon="7.44016">
        <ele>246.7952446091</ele>
        <time>2017-09-17T08:03:59Z</time>
      </trkpt>
      <trkpt lat="49.1664" lon="7.4402">
        <ele>239.8372603211</ele>
        <time>2017-09-17T08:04:43Z</time>
      </trkpt>
      <trkpt lat="49.16648" lon="7.4403">
        <ele>239.14055715188</ele>
        <time>2017-09-17T08:04:52Z</time>
      </trkpt>
      <trkpt lat="49.16657" lon="7.44045">
        <ele>239.03691949469</ele>
        <time>2017-09-17T08:05:01Z</time>
      </trkpt>
      <trkpt lat="49.16663" lon="7.44056">
        <ele>239.37431208583</ele>
        <time>2017-09-17T08:05:10Z</time>
      </trkpt>
      <trkpt lat="49.16672" lon="7.44073">
        <ele>240.42646533577</ele>
        <time>2017-09-17T08:05:20Z</time>
      </trkpt>
      <trkpt lat="49.16681" lon="7.44088">
        <ele>241.35738225014</ele>
        <time>2017-09-17T08:05:29Z</time>
      </trkpt>
      <trkpt lat="49.16689" lon="7.44106">
        <ele>242.13300465948</ele>
        <time>2017-09-17T08:05:38Z</time>
      </trkpt>
      <trkpt lat="49.16697" lon="7.4412">
        <ele>242.87644160835</ele>
        <time>2017-09-17T08:05:47Z</time>
      </trkpt>
      <trkpt lat="49.1671" lon="7.44139">
        <ele>243.33430803844</ele>
        <time>2017-09-17T08:05:57Z</time>
      </trkpt>
      <trkpt lat="49.16722" lon="7.44156">
        <ele>243.92461362126</ele>
        <time>2017-09-17T08:06:06Z</time>
      </trkpt>
      <trkpt lat="49.16732" lon="7.44169">
        <ele>244.68017380582</ele>
        <time>2017-09-17T08:06:15Z</time>
      </trkpt>
      <trkpt lat="49.16738" lon="7.44181">
        <ele>245.31907997376</ele>
        <time>2017-09-17T08:06:24Z</time>
      </trkpt>
      <trkpt lat="49.16748" lon="7.44198">
        <ele>245.37702771328</ele>
        <time>2017-09-17T08:06:33Z</time>
      </trkpt>
      <trkpt lat="49.16757" lon="7.44215">
        <ele>245.28083249133</ele>
        <time>2017-09-17T08:06:43Z</time>
      </trkpt>
      <trkpt lat="49.16768" lon="7.44228">
        <ele>245.48494891703</ele>
        <time>2017-09-17T08:06:52Z</time>
      </trkpt>
      <trkpt lat="49.16777" lon="7.44237">
        <ele>246.63724379927</ele>
        <time>2017-09-17T08:07:01Z</time>
      </trkpt>
      <trkpt lat="49.16783" lon="7.44245">
        <ele>247.96041371711</ele>
        <time>2017-09-17T08:07:10Z</time>
      </trkpt>
      <trkpt lat="49.16795" lon="7.44261">
        <ele>247.97543374145</ele>
        <time>2017-09-17T08:07:19Z</time>
      </trkpt>
      <trkpt lat="49.16811" lon="7.44279">
        <ele>247.80719276157</ele>
        <time>2017-09-17T08:07:28Z</time>
      </trkpt>
      <trkpt lat="49.16822" lon="7.44296">
        <ele>248.27014202397</ele>
        <time>2017-09-17T08:07:38Z</time>
      </trkpt>
      <trkpt lat="49.16833" lon="7.44311">
        <ele>248.59787638205</ele>
        <time>2017-09-17T08:07:48Z</time>
      </trkpt>
      <trkpt lat="49.16837" lon="7.44321">
        <ele>248.9402203671</ele>
        <time>2017-09-17T08:07:59Z</time>
      </trkpt>
      <trkpt lat="49.16845" lon="7.44337">
        <ele>248.98700150444</ele>
        <time>2017-09-17T08:08:09Z</time>
      </trkpt>
      <trkpt lat="49.16853" lon="7.44353">
        <ele>249.12482665992</ele>
        <time>2017-09-17T08:08:18Z</time>
      </trkpt>
      <trkpt lat="49.16864" lon="7.44372">
        <ele>249.49726392016</ele>
        <time>2017-09-17T08:08:27Z</time>
      </trkpt>
      <trkpt lat="49.16873" lon="7.44386">
        <ele>249.76812778638</ele>
        <time>2017-09-17T08:08:36Z</time>
      </trkpt>
      <trkpt lat="49.16886" lon="7.44411">
        <ele>249.96017829462</ele>
        <time>2017-09-17T08:08:46Z</time>
      </trkpt>
      <trkpt lat="49.16892" lon="7.44424">
        <ele>249.74953557106</ele>
        <time>2017-09-17T08:08:55Z</time>
      </trkpt>
      <trkpt lat="49.16897" lon="7.44438">
        <ele>249.5368048092</ele>
        <time>2017-09-17T08:09:04Z</time>
      </trkpt>
      <trkpt lat="49.16905" lon="7.44458">
        <ele>249.23380553661</ele>
        <time>2017-09-17T08:09:13Z</time>
      </trkpt>
      <trkpt lat="49.16915" lon="7.4448">
        <ele>248.85448602131</ele>
        <time>2017-09-17T08:09:22Z</time>
      </trkpt>
      <trkpt lat="49.1692" lon="7.445">
        <ele>248.08680579219</ele>
        <time>2017-09-17T08:09:32Z</time>
      </trkpt>
      <trkpt lat="49.16926" lon="7.44517">
        <ele>247.7386300575</ele>
        <time>2017-09-17T08:09:41Z</time>
      </trkpt>
      <trkpt lat="49.16931" lon="7.44536">
        <ele>247.45129671968</ele>
        <time>2017-09-17T08:09:51Z</time>
      </trkpt>
      <trkpt lat="49.16935" lon="7.44552">
        <ele>247.46068408671</ele>
        <time>2017-09-17T08:10:00Z</time>
      </trkpt>
      <trkpt lat="49.16941" lon="7.44565">
        <ele>247.79663335901</ele>
        <time>2017-09-17T08:10:10Z</time>
      </trkpt>
      <trkpt lat="49.16947" lon="7.44581">
        <ele>247.65470535139</ele>
        <time>2017-09-17T08:10:20Z</time>
      </trkpt>
      <trkpt lat="49.16955" lon="7.44597">
        <ele>247.49682994422</ele>
        <time>2017-09-17T08:10:29Z</time>
      </trkpt>
      <trkpt lat="49.16958" lon="7.4461">
        <ele>247.47652842438</ele>
        <time>2017-09-17T08:10:38Z</time>
      </trkpt>
      <trkpt lat="49.1696" lon="7.44626">
        <ele>247.71938326383</ele>
        <time>2017-09-17T08:10:47Z</time>
      </trkpt>
      <trkpt lat="49.16962" lon="7.44644">
        <ele>247.71520057737</ele>
        <time>2017-09-17T08:10:56Z</time>
      </trkpt>
      <trkpt lat="49.16966" lon="7.44667">
        <ele>247.18169019812</ele>
        <time>2017-09-17T08:11:06Z</time>
      </trkpt>
      <trkpt lat="49.16969" lon="7.44685">
        <ele>246.75650862288</ele>
        <time>2017-09-17T08:11:15Z</time>
      </trkpt>
      <trkpt lat="49.16969" lon="7.447">
        <ele>246.71602818837</ele>
        <time>2017-09-17T08:11:24Z</time>
      </trkpt>
      <trkpt lat="49.16971" lon="7.44718">
        <ele>246.99000018959</ele>
        <time>2017-09-17T08:11:34Z</time>
      </trkpt>
      <trkpt lat="49.16971" lon="7.44731">
        <ele>247.45727982433</ele>
        <time>2017-09-17T08:11:43Z</time>
      </trkpt>
      <trkpt lat="49.1697" lon="7.44756">
        <ele>248.42900948481</ele>
        <time>2017-09-17T08:11:52Z</time>
      </trkpt>
      <trkpt lat="49.1697" lon="7.4478">
        <ele>249.17047960585</ele>
        <time>2017-09-17T08:12:02Z</time>
      </trkpt>
      <trkpt lat="49.16967" lon="7.44797">
        <ele>249.59990721497</ele>
        <time>2017-09-17T08:12:11Z</time>
      </trkpt>
      <trkpt lat="49.16963" lon="7.44813">
        <ele>249.92479835539</ele>
        <time>2017-09-17T08:12:21Z</time>
      </trkpt>
      <trkpt lat="49.1696" lon="7.44834">
        <ele>250.13793631987</ele>
        <time>2017-09-17T08:12:30Z</time>
      </trkpt>
      <trkpt lat="49.16958" lon="7.44856">
        <ele>249.93874274959</ele>
        <time>2017-09-17T08:12:40Z</time>
      </trkpt>
      <trkpt lat="49.16955" lon="7.44868">
        <ele>249.84548951242</ele>
        <time>2017-09-17T08:12:49Z</time>
      </trkpt>
      <trkpt lat="49.16951" lon="7.44882">
        <ele>249.70452682255</ele>
        <time>2017-09-17T08:12:58Z</time>
      </trkpt>
      <trkpt lat="49.16948" lon="7.44898">
        <ele>249.58679353114</ele>
        <time>2017-09-17T08:13:07Z</time>
      </trkpt>
      <trkpt lat="49.16943" lon="7.44917">
        <ele>249.55962984673</ele>
        <time>2017-09-17T08:13:17Z</time>
      </trkpt>
      <trkpt lat="49.16937" lon="7.44938">
        <ele>249.51109489754</ele>
        <time>2017-09-17T08:13:27Z</time>
      </trkpt>
      <trkpt lat="49.16931" lon="7.44951">
        <ele>249.86807008846</ele>
        <time>2017-09-17T08:13:36Z</time>
      </trkpt>
      <trkpt lat="49.16925" lon="7.44967">
        <ele>250.41684279754</ele>
        <time>2017-09-17T08:13:45Z</time>
      </trkpt>
      <trkpt lat="49.1692" lon="7.44984">
        <ele>251.02191892351</ele>
        <time>2017-09-17T08:13:54Z</time>
      </trkpt>
      <trkpt lat="49.16916" lon="7.45001">
        <ele>251.84623486598</ele>
        <time>2017-09-17T08:14:04Z</time>
      </trkpt>
      <trkpt lat="49.16913" lon="7.45018">
        <ele>252.79772214299</ele>
        <time>2017-09-17T08:14:13Z</time>
      </trkpt>
      <trkpt lat="49.1691" lon="7.45034">
        <ele>253.83059901154</ele>
        <time>2017-09-17T08:14:22Z</time>
      </trkpt>
      <trkpt lat="49.16906" lon="7.45053">
        <ele>254.81004484479</ele>
        <time>2017-09-17T08:14:32Z</time>
      </trkpt>
      <trkpt lat="49.16903" lon="7.45074">
        <ele>255.7430421045</ele>
        <time>2017-09-17T08:14:41Z</time>
      </trkpt>
      <trkpt lat="49.16902" lon="7.45091">
        <ele>256.44730275207</ele>
        <time>2017-09-17T08:14:50Z</time>
      </trkpt>
      <trkpt lat="49.16899" lon="7.45106">
        <ele>256.9357476166</ele>
        <time>2017-09-17T08:15:00Z</time>
      </trkpt>
      <trkpt lat="49.16895" lon="7.45123">
        <ele>257.39220726163</ele>
        <time>2017-09-17T08:15:09Z</time>
      </trkpt>
      <trkpt lat="49.16893" lon="7.45142">
        <ele>257.3803223419</ele>
        <time>2017-09-17T08:15:18Z</time>
      </trkpt>
      <trkpt lat="49.16891" lon="7.45157">
        <ele>257.31350480918</ele>
        <time>2017-09-17T08:15:27Z</time>
      </trkpt>
      <trkpt lat="49.16887" lon="7.45174">
        <ele>257.38418788071</ele>
        <time>2017-09-17T08:15:36Z</time>
      </trkpt>
      <trkpt lat="49.16881" lon="7.45184">
        <ele>257.69997062879</ele>
        <time>2017-09-17T08:15:46Z</time>
      </trkpt>
      <trkpt lat="49.16871" lon="7.45197">
        <ele>258.18265721835</ele>
        <time>2017-09-17T08:15:55Z</time>
      </trkpt>
      <trkpt lat="49.16863" lon="7.45204">
        <ele>258.5769566527</ele>
        <time>2017-09-17T08:16:04Z</time>
      </trkpt>
      <trkpt lat="49.1685" lon="7.45215">
        <ele>258.56095696132</ele>
        <time>2017-09-17T08:16:13Z</time>
      </trkpt>
      <trkpt lat="49.16838" lon="7.45227">
        <ele>257.96644752088</ele>
        <time>2017-09-17T08:16:23Z</time>
      </trkpt>
      <trkpt lat="49.16829" lon="7.45238">
        <ele>257.45795625874</ele>
        <time>2017-09-17T08:16:32Z</time>
      </trkpt>
      <trkpt lat="49.16822" lon="7.45251">
        <ele>256.99140604978</ele>
        <time>2017-09-17T08:16:41Z</time>
      </trkpt>
      <trkpt lat="49.16813" lon="7.45272">
        <ele>256.73802428809</ele>
        <time>2017-09-17T08:16:51Z</time>
      </trkpt>
      <trkpt lat="49.16807" lon="7.45281">
        <ele>256.39053799403</ele>
        <time>2017-09-17T08:17:00Z</time>
      </trkpt>
      <trkpt lat="49.16802" lon="7.45292">
        <ele>255.69371533869</ele>
        <time>2017-09-17T08:17:09Z</time>
      </trkpt>
      <trkpt lat="49.16794" lon="7.45311">
        <ele>255.11805585663</ele>
        <time>2017-09-17T08:17:18Z</time>
      </trkpt>
      <trkpt lat="49.16786" lon="7.45327">
        <ele>254.34124211447</ele>
        <time>2017-09-17T08:17:28Z</time>
      </trkpt>
      <trkpt lat="49.1678" lon="7.45345">
        <ele>252.92793571708</ele>
        <time>2017-09-17T08:17:37Z</time>
      </trkpt>
      <trkpt lat="49.16774" lon="7.45363">
        <ele>252.18104083913</ele>
        <time>2017-09-17T08:17:46Z</time>
      </trkpt>
      <trkpt lat="49.16768" lon="7.45376">
        <ele>251.28787394179</ele>
        <time>2017-09-17T08:17:56Z</time>
      </trkpt>
      <trkpt lat="49.1676" lon="7.45395">
        <ele>250.142396346</ele>
        <time>2017-09-17T08:18:06Z</time>
      </trkpt>
      <trkpt lat="49.16752" lon="7.45414">
        <ele>248.77592952931</ele>
        <time>2017-09-17T08:18:15Z</time>
      </trkpt>
      <trkpt lat="49.16745" lon="7.45428">
        <ele>248.24280417567</ele>
        <time>2017-09-17T08:18:24Z</time>
      </trkpt>
      <trkpt lat="49.16734" lon="7.45444">
        <ele>247.35480340844</ele>
        <time>2017-09-17T08:18:34Z</time>
      </trkpt>
      <trkpt lat="49.16725" lon="7.45458">
        <ele>246.18319824922</ele>
        <time>2017-09-17T08:18:43Z</time>
      </trkpt>
      <trkpt lat="49.16717" lon="7.45473">
        <ele>245.636479087</ele>
        <time>2017-09-17T08:18:53Z</time>
      </trkpt>
      <trkpt lat="49.16707" lon="7.45489">
        <ele>245.22304875362</ele>
        <time>2017-09-17T08:19:03Z</time>
      </trkpt>
      <trkpt lat="49.16701" lon="7.45503">
        <ele>244.42385904063</ele>
        <time>2017-09-17T08:19:13Z</time>
      </trkpt>
      <trkpt lat="49.16691" lon="7.45522">
        <ele>243.55691197628</ele>
        <time>2017-09-17T08:19:22Z</time>
      </trkpt>
      <trkpt lat="49.16683" lon="7.4553">
        <ele>244.19480659757</ele>
        <time>2017-09-17T08:19:31Z</time>
      </trkpt>
      <trkpt lat="49.16667" lon="7.45544">
        <ele>245.07720174687</ele>
        <time>2017-09-17T08:19:40Z</time>
      </trkpt>
      <trkpt lat="49.16659" lon="7.45556">
        <ele>245.48187422877</ele>
        <time>2017-09-17T08:19:50Z</time>
      </trkpt>
      <trkpt lat="49.16651" lon="7.45566">
        <ele>245.86591168051</ele>
        <time>2017-09-17T08:19:59Z</time>
      </trkpt>
      <trkpt lat="49.16643" lon="7.45575">
        <ele>245.41414625936</ele>
        <time>2017-09-17T08:20:09Z</time>
      </trkpt>
      <trkpt lat="49.16633" lon="7.4559">
        <ele>244.9405474793</ele>
        <time>2017-09-17T08:20:18Z</time>
      </trkpt>
      <trkpt lat="49.16624" lon="7.45606">
        <ele>245.33460168754</ele>
        <time>2017-09-17T08:20:28Z</time>
      </trkpt>
      <trkpt lat="49.16615" lon="7.45613">
        <ele>245.84730735712</ele>
        <time>2017-09-17T08:20:37Z</time>
      </trkpt>
      <trkpt lat="49.16603" lon="7.45628">
        <ele>245.7669431539</ele>
        <time>2017-09-17T08:20:46Z</time>
      </trkpt>
      <trkpt lat="49.16595" lon="7.45635">
        <ele>245.4483907548</ele>
        <time>2017-09-17T08:20:56Z</time>
      </trkpt>
      <trkpt lat="49.16584" lon="7.45647">
        <ele>245.86793852316</ele>
        <time>2017-09-17T08:21:05Z</time>
      </trkpt>
      <trkpt lat="49.16572" lon="7.45665">
        <ele>246.34030511709</ele>
        <time>2017-09-17T08:21:15Z</time>
      </trkpt>
      <trkpt lat="49.16566" lon="7.45673">
        <ele>247.08698933488</ele>
        <time>2017-09-17T08:21:26Z</time>
      </trkpt>
      <trkpt lat="49.16556" lon="7.45688">
        <ele>248.41919184811</ele>
        <time>2017-09-17T08:21:36Z</time>
      </trkpt>
      <trkpt lat="49.16548" lon="7.45699">
        <ele>249.74781093693</ele>
        <time>2017-09-17T08:21:45Z</time>
      </trkpt>
      <trkpt lat="49.1654" lon="7.45704">
        <ele>251.50297221585</ele>
        <time>2017-09-17T08:21:54Z</time>
      </trkpt>
      <trkpt lat="49.16526" lon="7.45713">
        <ele>253.27939305583</ele>
        <time>2017-09-17T08:22:03Z</time>
      </trkpt>
      <trkpt lat="49.16515" lon="7.45723">
        <ele>255.21448755838</ele>
        <time>2017-09-17T08:22:13Z</time>
      </trkpt>
      <trkpt lat="49.16508" lon="7.45732">
        <ele>257.49643841803</ele>
        <time>2017-09-17T08:22:24Z</time>
      </trkpt>
      <trkpt lat="49.16497" lon="7.45735">
        <ele>259.15226537864</ele>
        <time>2017-09-17T08:22:33Z</time>
      </trkpt>
      <trkpt lat="49.16476" lon="7.4574">
        <ele>260.05406255454</ele>
        <time>2017-09-17T08:22:42Z</time>
      </trkpt>
      <trkpt lat="49.16465" lon="7.45744">
        <ele>260.39373689314</ele>
        <time>2017-09-17T08:22:51Z</time>
      </trkpt>
      <trkpt lat="49.16454" lon="7.45748">
        <ele>260.46011934296</ele>
        <time>2017-09-17T08:23:01Z</time>
      </trkpt>
      <trkpt lat="49.16445" lon="7.45755">
        <ele>260.50048493201</ele>
        <time>2017-09-17T08:23:10Z</time>
      </trkpt>
      <trkpt lat="49.16436" lon="7.45762">
        <ele>260.77987770367</ele>
        <time>2017-09-17T08:23:20Z</time>
      </trkpt>
      <trkpt lat="49.16427" lon="7.4577">
        <ele>261.04767572261</ele>
        <time>2017-09-17T08:23:29Z</time>
      </trkpt>
      <trkpt lat="49.16417" lon="7.45773">
        <ele>262.07863433582</ele>
        <time>2017-09-17T08:23:38Z</time>
      </trkpt>
      <trkpt lat="49.16406" lon="7.45778">
        <ele>263.17085685276</ele>
        <time>2017-09-17T08:23:48Z</time>
      </trkpt>
      <trkpt lat="49.16392" lon="7.45776">
        <ele>264.09778776985</ele>
        <time>2017-09-17T08:23:57Z</time>
      </trkpt>
      <trkpt lat="49.16379" lon="7.45776">
        <ele>263.85862510143</ele>
        <time>2017-09-17T08:24:07Z</time>
      </trkpt>
      <trkpt lat="49.16367" lon="7.45779">
        <ele>263.10244265588</ele>
        <time>2017-09-17T08:24:17Z</time>
      </trkpt>
      <trkpt lat="49.16351" lon="7.4578">
        <ele>262.47728212848</ele>
        <time>2017-09-17T08:24:27Z</time>
      </trkpt>
      <trkpt lat="49.16339" lon="7.45779">
        <ele>261.92697341335</ele>
        <time>2017-09-17T08:24:36Z</time>
      </trkpt>
      <trkpt lat="49.16328" lon="7.45782">
        <ele>261.35310191964</ele>
        <time>2017-09-17T08:24:45Z</time>
      </trkpt>
      <trkpt lat="49.16317" lon="7.45792">
        <ele>260.545803335</ele>
        <time>2017-09-17T08:24:55Z</time>
      </trkpt>
      <trkpt lat="49.16308" lon="7.45804">
        <ele>259.62442101459</ele>
        <time>2017-09-17T08:25:04Z</time>
      </trkpt>
      <trkpt lat="49.16299" lon="7.45805">
        <ele>258.71388055202</ele>
        <time>2017-09-17T08:25:21Z</time>
      </trkpt>
      <trkpt lat="49.16285" lon="7.45785">
        <ele>258.60044175631</ele>
        <time>2017-09-17T08:25:31Z</time>
      </trkpt>
      <trkpt lat="49.16276" lon="7.45766">
        <ele>258.68349495189</ele>
        <time>2017-09-17T08:25:41Z</time>
      </trkpt>
      <trkpt lat="49.16273" lon="7.4575">
        <ele>258.5828583178</ele>
        <time>2017-09-17T08:25:50Z</time>
      </trkpt>
      <trkpt lat="49.16268" lon="7.45731">
        <ele>258.11455540905</ele>
        <time>2017-09-17T08:26:00Z</time>
      </trkpt>
      <trkpt lat="49.16265" lon="7.45719">
        <ele>257.56203240608</ele>
        <time>2017-09-17T08:26:09Z</time>
      </trkpt>
      <trkpt lat="49.1626" lon="7.45703">
        <ele>256.89214871066</ele>
        <time>2017-09-17T08:26:19Z</time>
      </trkpt>
      <trkpt lat="49.16255" lon="7.45689">
        <ele>256.50020364866</ele>
        <time>2017-09-17T08:26:28Z</time>
      </trkpt>
      <trkpt lat="49.16251" lon="7.45675">
        <ele>256.38421154166</ele>
        <time>2017-09-17T08:26:37Z</time>
      </trkpt>
      <trkpt lat="49.16245" lon="7.45659">
        <ele>256.16468609106</ele>
        <time>2017-09-17T08:26:47Z</time>
      </trkpt>
      <trkpt lat="49.1624" lon="7.45644">
        <ele>256.08183314954</ele>
        <time>2017-09-17T08:26:56Z</time>
      </trkpt>
      <trkpt lat="49.16236" lon="7.45627">
        <ele>255.99843269788</ele>
        <time>2017-09-17T08:27:06Z</time>
      </trkpt>
      <trkpt lat="49.16231" lon="7.45612">
        <ele>255.87440960696</ele>
        <time>2017-09-17T08:27:15Z</time>
      </trkpt>
      <trkpt lat="49.16226" lon="7.45595">
        <ele>255.62418752136</ele>
        <time>2017-09-17T08:27:25Z</time>
      </trkpt>
      <trkpt lat="49.16222" lon="7.45578">
        <ele>255.36670689785</ele>
        <time>2017-09-17T08:27:35Z</time>
      </trkpt>
      <trkpt lat="49.16218" lon="7.45559">
        <ele>254.94256437119</ele>
        <time>2017-09-17T08:27:44Z</time>
      </trkpt>
      <trkpt lat="49.16216" lon="7.45546">
        <ele>254.6191198701</ele>
        <time>2017-09-17T08:27:53Z</time>
      </trkpt>
      <trkpt lat="49.16212" lon="7.45526">
        <ele>254.40321120632</ele>
        <time>2017-09-17T08:28:03Z</time>
      </trkpt>
      <trkpt lat="49.1621" lon="7.4551">
        <ele>254.44266501911</ele>
        <time>2017-09-17T08:28:12Z</time>
      </trkpt>
      <trkpt lat="49.16207" lon="7.45497">
        <ele>254.75834439566</ele>
        <time>2017-09-17T08:28:21Z</time>
      </trkpt>
      <trkpt lat="49.16202" lon="7.45479">
        <ele>255.11429210386</ele>
        <time>2017-09-17T08:28:31Z</time>
      </trkpt>
      <trkpt lat="49.162" lon="7.45464">
        <ele>255.55799291272</ele>
        <time>2017-09-17T08:28:40Z</time>
      </trkpt>
      <trkpt lat="49.16196" lon="7.45448">
        <ele>255.88400818866</ele>
        <time>2017-09-17T08:28:49Z</time>
      </trkpt>
      <trkpt lat="49.16191" lon="7.45432">
        <ele>256.13969004898</ele>
        <time>2017-09-17T08:28:59Z</time>
      </trkpt>
      <trkpt lat="49.16185" lon="7.45416">
        <ele>256.52352325514</ele>
        <time>2017-09-17T08:29:08Z</time>
      </trkpt>
      <trkpt lat="49.16184" lon="7.45402">
        <ele>256.77032995366</ele>
        <time>2017-09-17T08:29:17Z</time>
      </trkpt>
      <trkpt lat="49.16181" lon="7.45387">
        <ele>256.72449984838</ele>
        <time>2017-09-17T08:29:27Z</time>
      </trkpt>
      <trkpt lat="49.16176" lon="7.45374">
        <ele>256.77509950627</ele>
        <time>2017-09-17T08:29:36Z</time>
      </trkpt>
      <trkpt lat="49.16172" lon="7.45364">
        <ele>257.30864287184</ele>
        <time>2017-09-17T08:29:46Z</time>
      </trkpt>
      <trkpt lat="49.16164" lon="7.45349">
        <ele>258.07134997736</ele>
        <time>2017-09-17T08:29:55Z</time>
      </trkpt>
      <trkpt lat="49.16158" lon="7.45335">
        <ele>259.64990415505</ele>
        <time>2017-09-17T08:30:05Z</time>
      </trkpt>
      <trkpt lat="49.1615" lon="7.45323">
        <ele>261.69296994115</ele>
        <time>2017-09-17T08:30:14Z</time>
      </trkpt>
      <trkpt lat="49.16136" lon="7.45308">
        <ele>262.76659806491</ele>
        <time>2017-09-17T08:30:24Z</time>
      </trkpt>
      <trkpt lat="49.1613" lon="7.45298">
        <ele>263.42927205523</ele>
        <time>2017-09-17T08:30:37Z</time>
      </trkpt>
      <trkpt lat="49.16122" lon="7.45287">
        <ele>264.2257252644</ele>
        <time>2017-09-17T08:30:47Z</time>
      </trkpt>
      <trkpt lat="49.16113" lon="7.45277">
        <ele>264.27183749429</ele>
        <time>2017-09-17T08:30:56Z</time>
      </trkpt>
      <trkpt lat="49.16102" lon="7.45268">
        <ele>264.2009473035</ele>
        <time>2017-09-17T08:31:05Z</time>
      </trkpt>
      <trkpt lat="49.16093" lon="7.45263">
        <ele>263.9678560936</ele>
        <time>2017-09-17T08:31:14Z</time>
      </trkpt>
      <trkpt lat="49.16084" lon="7.45251">
        <ele>263.50738544222</ele>
        <time>2017-09-17T08:31:23Z</time>
      </trkpt>
      <trkpt lat="49.16076" lon="7.45242">
        <ele>263.28791352531</ele>
        <time>2017-09-17T08:31:33Z</time>
      </trkpt>
      <trkpt lat="49.1607" lon="7.45235">
        <ele>263.80842894927</ele>
        <time>2017-09-17T08:31:45Z</time>
      </trkpt>
      <trkpt lat="49.16058" lon="7.45219">
        <ele>264.83280156702</ele>
        <time>2017-09-17T08:31:54Z</time>
      </trkpt>
      <trkpt lat="49.1605" lon="7.4521">
        <ele>266.22522983155</ele>
        <time>2017-09-17T08:32:03Z</time>
      </trkpt>
      <trkpt lat="49.16042" lon="7.45202">
        <ele>266.97163789488</ele>
        <time>2017-09-17T08:32:12Z</time>
      </trkpt>
      <trkpt lat="49.16035" lon="7.4519">
        <ele>268.22571851429</ele>
        <time>2017-09-17T08:32:22Z</time>
      </trkpt>
      <trkpt lat="49.16022" lon="7.45182">
        <ele>269.96551379257</ele>
        <time>2017-09-17T08:32:32Z</time>
      </trkpt>
      <trkpt lat="49.16013" lon="7.45177">
        <ele>270.95731338258</ele>
        <time>2017-09-17T08:32:41Z</time>
      </trkpt>
      <trkpt lat="49.16003" lon="7.45174">
        <ele>271.56003232153</ele>
        <time>2017-09-17T08:32:51Z</time>
      </trkpt>
      <trkpt lat="49.15986" lon="7.45166">
        <ele>270.56431903702</ele>
        <time>2017-09-17T08:33:00Z</time>
      </trkpt>
      <trkpt lat="49.15976" lon="7.45159">
        <ele>269.91817639178</ele>
        <time>2017-09-17T08:33:10Z</time>
      </trkpt>
      <trkpt lat="49.15969" lon="7.45151">
        <ele>269.98714868945</ele>
        <time>2017-09-17T08:33:21Z</time>
      </trkpt>
      <trkpt lat="49.15958" lon="7.45142">
        <ele>269.79005772255</ele>
        <time>2017-09-17T08:33:30Z</time>
      </trkpt>
      <trkpt lat="49.15946" lon="7.4514">
        <ele>269.62138870533</ele>
        <time>2017-09-17T08:33:39Z</time>
      </trkpt>
      <trkpt lat="49.15933" lon="7.45134">
        <ele>268.87849093129</ele>
        <time>2017-09-17T08:33:49Z</time>
      </trkpt>
      <trkpt lat="49.15926" lon="7.4513">
        <ele>268.47233362941</ele>
        <time>2017-09-17T08:33:59Z</time>
      </trkpt>
      <trkpt lat="49.15909" lon="7.45129">
        <ele>268.77829377602</ele>
        <time>2017-09-17T08:34:08Z</time>
      </trkpt>
      <trkpt lat="49.15896" lon="7.45128">
        <ele>269.45706823261</ele>
        <time>2017-09-17T08:34:18Z</time>
      </trkpt>
      <trkpt lat="49.15884" lon="7.45119">
        <ele>268.7364900204</ele>
        <time>2017-09-17T08:34:27Z</time>
      </trkpt>
      <trkpt lat="49.15874" lon="7.45116">
        <ele>267.21748170604</ele>
        <time>2017-09-17T08:34:36Z</time>
      </trkpt>
      <trkpt lat="49.15863" lon="7.4511">
        <ele>265.65559855208</ele>
        <time>2017-09-17T08:34:46Z</time>
      </trkpt>
      <trkpt lat="49.15851" lon="7.45105">
        <ele>264.19734987782</ele>
        <time>2017-09-17T08:34:56Z</time>
      </trkpt>
      <trkpt lat="49.1584" lon="7.45104">
        <ele>263.40001097823</ele>
        <time>2017-09-17T08:35:05Z</time>
      </trkpt>
      <trkpt lat="49.15828" lon="7.45109">
        <ele>263.13293631952</ele>
        <time>2017-09-17T08:35:14Z</time>
      </trkpt>
      <trkpt lat="49.15819" lon="7.45105">
        <ele>262.90130973589</ele>
        <time>2017-09-17T08:35:24Z</time>
      </trkpt>
      <trkpt lat="49.15806" lon="7.45104">
        <ele>262.62892186686</ele>
        <time>2017-09-17T08:35:34Z</time>
      </trkpt>
      <trkpt lat="49.15795" lon="7.45102">
        <ele>262.26153808479</ele>
        <time>2017-09-17T08:35:43Z</time>
      </trkpt>
      <trkpt lat="49.15787" lon="7.45102">
        <ele>261.19498790069</ele>
        <time>2017-09-17T08:35:52Z</time>
      </trkpt>
      <trkpt lat="49.15775" lon="7.45104">
        <ele>260.28791188176</ele>
        <time>2017-09-17T08:36:01Z</time>
      </trkpt>
      <trkpt lat="49.15765" lon="7.45107">
        <ele>259.82850673056</ele>
        <time>2017-09-17T08:36:10Z</time>
      </trkpt>
      <trkpt lat="49.15753" lon="7.45112">
        <ele>259.60244692809</ele>
        <time>2017-09-17T08:36:19Z</time>
      </trkpt>
      <trkpt lat="49.15745" lon="7.45118">
        <ele>259.08665814271</ele>
        <time>2017-09-17T08:36:29Z</time>
      </trkpt>
      <trkpt lat="49.15733" lon="7.45125">
        <ele>258.54123492828</ele>
        <time>2017-09-17T08:36:39Z</time>
      </trkpt>
      <trkpt lat="49.15721" lon="7.45128">
        <ele>258.68619248453</ele>
        <time>2017-09-17T08:36:48Z</time>
      </trkpt>
      <trkpt lat="49.15714" lon="7.45133">
        <ele>259.07289859652</ele>
        <time>2017-09-17T08:36:57Z</time>
      </trkpt>
      <trkpt lat="49.15704" lon="7.45139">
        <ele>259.41449821759</ele>
        <time>2017-09-17T08:37:06Z</time>
      </trkpt>
      <trkpt lat="49.15701" lon="7.45151">
        <ele>260.38532907303</ele>
        <time>2017-09-17T08:37:20Z</time>
      </trkpt>
      <trkpt lat="49.15701" lon="7.45163">
        <ele>262.32590303477</ele>
        <time>2017-09-17T08:37:32Z</time>
      </trkpt>
      <trkpt lat="49.15691" lon="7.45177">
        <ele>262.93823663353</ele>
        <time>2017-09-17T08:37:41Z</time>
      </trkpt>
      <trkpt lat="49.15683" lon="7.45182">
        <ele>262.54562587351</ele>
        <time>2017-09-17T08:37:52Z</time>
      </trkpt>
      <trkpt lat="49.15676" lon="7.45186">
        <ele>263.5325848678</ele>
        <time>2017-09-17T08:38:05Z</time>
      </trkpt>
      <trkpt lat="49.15668" lon="7.45198">
        <ele>264.56807216885</ele>
        <time>2017-09-17T08:38:14Z</time>
      </trkpt>
      <trkpt lat="49.15659" lon="7.45209">
        <ele>265.30539084059</ele>
        <time>2017-09-17T08:38:23Z</time>
      </trkpt>
      <trkpt lat="49.15649" lon="7.4521">
        <ele>265.97143045761</ele>
        <time>2017-09-17T08:38:32Z</time>
      </trkpt>
      <trkpt lat="49.15643" lon="7.4522">
        <ele>269.3170153104</ele>
        <time>2017-09-17T08:38:53Z</time>
      </trkpt>
      <trkpt lat="49.15636" lon="7.45236">
        <ele>271.33735799827</ele>
        <time>2017-09-17T08:39:02Z</time>
      </trkpt>
      <trkpt lat="49.15628" lon="7.45245">
        <ele>271.88541951739</ele>
        <time>2017-09-17T08:39:11Z</time>
      </trkpt>
      <trkpt lat="49.15621" lon="7.45249">
        <ele>272.09861224456</ele>
        <time>2017-09-17T08:39:28Z</time>
      </trkpt>
      <trkpt lat="49.15612" lon="7.45261">
        <ele>271.77848774639</ele>
        <time>2017-09-17T08:39:38Z</time>
      </trkpt>
      <trkpt lat="49.15604" lon="7.45269">
        <ele>272.08456829114</ele>
        <time>2017-09-17T08:39:47Z</time>
      </trkpt>
      <trkpt lat="49.15597" lon="7.45273">
        <ele>272.35615633638</ele>
        <time>2017-09-17T08:39:57Z</time>
      </trkpt>
      <trkpt lat="49.15599" lon="7.45291">
        <ele>272.89992325358</ele>
        <time>2017-09-17T08:40:07Z</time>
      </trkpt>
      <trkpt lat="49.15597" lon="7.45304">
        <ele>274.52913036413</ele>
        <time>2017-09-17T08:40:16Z</time>
      </trkpt>
      <trkpt lat="49.15591" lon="7.45312">
        <ele>278.58175353223</ele>
        <time>2017-09-17T08:40:25Z</time>
      </trkpt>
      <trkpt lat="49.15583" lon="7.45327">
        <ele>280.27498198359</ele>
        <time>2017-09-17T08:40:34Z</time>
      </trkpt>
      <trkpt lat="49.15578" lon="7.45338">
        <ele>280.11899448692</ele>
        <time>2017-09-17T08:40:45Z</time>
      </trkpt>
      <trkpt lat="49.15569" lon="7.45345">
        <ele>279.97760317824</ele>
        <time>2017-09-17T08:40:55Z</time>
      </trkpt>
      <trkpt lat="49.15563" lon="7.45352">
        <ele>280.80461378014</ele>
        <time>2017-09-17T08:41:09Z</time>
      </trkpt>
      <trkpt lat="49.15553" lon="7.45359">
        <ele>281.49936324392</ele>
        <time>2017-09-17T08:41:18Z</time>
      </trkpt>
      <trkpt lat="49.15542" lon="7.45362">
        <ele>281.96230075666</ele>
        <time>2017-09-17T08:41:27Z</time>
      </trkpt>
      <trkpt lat="49.15535" lon="7.45362">
        <ele>281.96915224563</ele>
        <time>2017-09-17T08:41:36Z</time>
      </trkpt>
      <trkpt lat="49.15525" lon="7.45373">
        <ele>283.54520426416</ele>
        <time>2017-09-17T08:41:45Z</time>
      </trkpt>
      <trkpt lat="49.15518" lon="7.4538">
        <ele>286.51268032519</ele>
        <time>2017-09-17T08:41:59Z</time>
      </trkpt>
      <trkpt lat="49.15512" lon="7.45389">
        <ele>289.18441893946</ele>
        <time>2017-09-17T08:42:12Z</time>
      </trkpt>
      <trkpt lat="49.15503" lon="7.45393">
        <ele>292.50178710284</ele>
        <time>2017-09-17T08:42:21Z</time>
      </trkpt>
      <trkpt lat="49.15491" lon="7.45394">
        <ele>295.06190647811</ele>
        <time>2017-09-17T08:42:30Z</time>
      </trkpt>
      <trkpt lat="49.1548" lon="7.454">
        <ele>295.58302051181</ele>
        <time>2017-09-17T08:42:39Z</time>
      </trkpt>
      <trkpt lat="49.15473" lon="7.45407">
        <ele>296.2470562915</ele>
        <time>2017-09-17T08:42:50Z</time>
      </trkpt>
      <trkpt lat="49.15469" lon="7.45418">
        <ele>297.1781874053</ele>
        <time>2017-09-17T08:43:05Z</time>
      </trkpt>
      <trkpt lat="49.15473" lon="7.45439">
        <ele>298.88189839644</ele>
        <time>2017-09-17T08:43:15Z</time>
      </trkpt>
      <trkpt lat="49.1548" lon="7.45445">
        <ele>300.90720206601</ele>
        <time>2017-09-17T08:43:25Z</time>
      </trkpt>
      <trkpt lat="49.15488" lon="7.45455">
        <ele>302.83261680002</ele>
        <time>2017-09-17T08:43:34Z</time>
      </trkpt>
      <trkpt lat="49.15495" lon="7.4546">
        <ele>305.03010553587</ele>
        <time>2017-09-17T08:43:44Z</time>
      </trkpt>
      <trkpt lat="49.15506" lon="7.4547">
        <ele>306.2346353883</ele>
        <time>2017-09-17T08:43:53Z</time>
      </trkpt>
      <trkpt lat="49.15505" lon="7.45486">
        <ele>307.18384701345</ele>
        <time>2017-09-17T08:44:02Z</time>
      </trkpt>
      <trkpt lat="49.15506" lon="7.45501">
        <ele>306.84846598573</ele>
        <time>2017-09-17T08:44:11Z</time>
      </trkpt>
      <trkpt lat="49.15505" lon="7.45513">
        <ele>307.48911305311</ele>
        <time>2017-09-17T08:44:22Z</time>
      </trkpt>
      <trkpt lat="49.15504" lon="7.45529">
        <ele>308.3059775796</ele>
        <time>2017-09-17T08:44:31Z</time>
      </trkpt>
      <trkpt lat="49.15504" lon="7.45542">
        <ele>309.65772003895</ele>
        <time>2017-09-17T08:44:43Z</time>
      </trkpt>
      <trkpt lat="49.15503" lon="7.45556">
        <ele>310.76712523511</ele>
        <time>2017-09-17T08:44:52Z</time>
      </trkpt>
      <trkpt lat="49.15501" lon="7.45569">
        <ele>312.09546122751</ele>
        <time>2017-09-17T08:45:01Z</time>
      </trkpt>
      <trkpt lat="49.15501" lon="7.45583">
        <ele>313.57622257575</ele>
        <time>2017-09-17T08:45:10Z</time>
      </trkpt>
      <trkpt lat="49.15502" lon="7.45598">
        <ele>314.95522613866</ele>
        <time>2017-09-17T08:45:20Z</time>
      </trkpt>
      <trkpt lat="49.15504" lon="7.45611">
        <ele>316.88059734873</ele>
        <time>2017-09-17T08:45:33Z</time>
      </trkpt>
      <trkpt lat="49.15509" lon="7.45627">
        <ele>317.93282924697</ele>
        <time>2017-09-17T08:45:42Z</time>
      </trkpt>
      <trkpt lat="49.15513" lon="7.45642">
        <ele>319.20656822287</ele>
        <time>2017-09-17T08:45:51Z</time>
      </trkpt>
      <trkpt lat="49.15516" lon="7.45654">
        <ele>320.88593325277</ele>
        <time>2017-09-17T08:46:01Z</time>
      </trkpt>
      <trkpt lat="49.15522" lon="7.4567">
        <ele>321.64680390283</ele>
        <time>2017-09-17T08:46:10Z</time>
      </trkpt>
      <trkpt lat="49.15526" lon="7.45684">
        <ele>322.3953615833</ele>
        <time>2017-09-17T08:46:19Z</time>
      </trkpt>
      <trkpt lat="49.15528" lon="7.457">
        <ele>323.49376364983</ele>
        <time>2017-09-17T08:46:29Z</time>
      </trkpt>
      <trkpt lat="49.15531" lon="7.45712">
        <ele>324.35493429346</ele>
        <time>2017-09-17T08:46:38Z</time>
      </trkpt>
      <trkpt lat="49.15533" lon="7.45729">
        <ele>326.05059278439</ele>
        <time>2017-09-17T08:46:48Z</time>
      </trkpt>
      <trkpt lat="49.15536" lon="7.45741">
        <ele>327.60963537611</ele>
        <time>2017-09-17T08:46:57Z</time>
      </trkpt>
      <trkpt lat="49.15538" lon="7.45756">
        <ele>329.27849587806</ele>
        <time>2017-09-17T08:47:07Z</time>
      </trkpt>
      <trkpt lat="49.15535" lon="7.45772">
        <ele>330.55226823304</ele>
        <time>2017-09-17T08:47:16Z</time>
      </trkpt>
      <trkpt lat="49.1553" lon="7.45784">
        <ele>330.98729104348</ele>
        <time>2017-09-17T08:47:25Z</time>
      </trkpt>
      <trkpt lat="49.15526" lon="7.45796">
        <ele>331.81641706171</ele>
        <time>2017-09-17T08:47:34Z</time>
      </trkpt>
      <trkpt lat="49.15527" lon="7.45811">
        <ele>332.73179418729</ele>
        <time>2017-09-17T08:47:43Z</time>
      </trkpt>
      <trkpt lat="49.15529" lon="7.45828">
        <ele>333.74205337229</ele>
        <time>2017-09-17T08:47:52Z</time>
      </trkpt>
      <trkpt lat="49.15532" lon="7.45845">
        <ele>334.52483295383</ele>
        <time>2017-09-17T08:48:01Z</time>
      </trkpt>
      <trkpt lat="49.15532" lon="7.45858">
        <ele>334.99618630074</ele>
        <time>2017-09-17T08:48:11Z</time>
      </trkpt>
      <trkpt lat="49.15533" lon="7.45872">
        <ele>335.26578175941</ele>
        <time>2017-09-17T08:48:20Z</time>
      </trkpt>
      <trkpt lat="49.15534" lon="7.45886">
        <ele>336.16224721322</ele>
        <time>2017-09-17T08:48:30Z</time>
      </trkpt>
      <trkpt lat="49.15532" lon="7.45902">
        <ele>337.85790564163</ele>
        <time>2017-09-17T08:48:39Z</time>
      </trkpt>
      <trkpt lat="49.15526" lon="7.45916">
        <ele>339.00506978271</ele>
        <time>2017-09-17T08:48:49Z</time>
      </trkpt>
      <trkpt lat="49.1552" lon="7.45932">
        <ele>339.6161939771</ele>
        <time>2017-09-17T08:48:59Z</time>
      </trkpt>
      <trkpt lat="49.15517" lon="7.45948">
        <ele>339.9944566954</ele>
        <time>2017-09-17T08:49:08Z</time>
      </trkpt>
      <trkpt lat="49.15512" lon="7.45963">
        <ele>339.99731199408</ele>
        <time>2017-09-17T08:49:17Z</time>
      </trkpt>
      <trkpt lat="49.15507" lon="7.4598">
        <ele>340.26593665092</ele>
        <time>2017-09-17T08:49:27Z</time>
      </trkpt>
      <trkpt lat="49.15502" lon="7.45994">
        <ele>340.68314421102</ele>
        <time>2017-09-17T08:49:37Z</time>
      </trkpt>
      <trkpt lat="49.15498" lon="7.46008">
        <ele>340.92801633553</ele>
        <time>2017-09-17T08:49:46Z</time>
      </trkpt>
      <trkpt lat="49.15493" lon="7.46021">
        <ele>341.17949736103</ele>
        <time>2017-09-17T08:49:56Z</time>
      </trkpt>
      <trkpt lat="49.15488" lon="7.46035">
        <ele>341.58188047007</ele>
        <time>2017-09-17T08:50:05Z</time>
      </trkpt>
      <trkpt lat="49.15483" lon="7.46045">
        <ele>342.15260955125</ele>
        <time>2017-09-17T08:50:14Z</time>
      </trkpt>
      <trkpt lat="49.15479" lon="7.46059">
        <ele>342.76792849002</ele>
        <time>2017-09-17T08:50:23Z</time>
      </trkpt>
      <trkpt lat="49.15475" lon="7.46075">
        <ele>343.11502922243</ele>
        <time>2017-09-17T08:50:33Z</time>
      </trkpt>
      <trkpt lat="49.15472" lon="7.4609">
        <ele>343.4517411758</ele>
        <time>2017-09-17T08:50:42Z</time>
      </trkpt>
      <trkpt lat="49.15467" lon="7.46103">
        <ele>343.85460824572</ele>
        <time>2017-09-17T08:50:51Z</time>
      </trkpt>
      <trkpt lat="49.15464" lon="7.46114">
        <ele>344.10277532526</ele>
        <time>2017-09-17T08:51:01Z</time>
      </trkpt>
      <trkpt lat="49.15461" lon="7.46127">
        <ele>344.55096278767</ele>
        <time>2017-09-17T08:51:11Z</time>
      </trkpt>
      <trkpt lat="49.15455" lon="7.46142">
        <ele>344.63328441369</ele>
        <time>2017-09-17T08:51:21Z</time>
      </trkpt>
      <trkpt lat="49.15451" lon="7.46159">
        <ele>344.83599504167</ele>
        <time>2017-09-17T08:51:30Z</time>
      </trkpt>
      <trkpt lat="49.15446" lon="7.46173">
        <ele>344.96901055592</ele>
        <time>2017-09-17T08:51:40Z</time>
      </trkpt>
      <trkpt lat="49.15441" lon="7.46188">
        <ele>345.05047644496</ele>
        <time>2017-09-17T08:51:49Z</time>
      </trkpt>
      <trkpt lat="49.15437" lon="7.46203">
        <ele>345.27584919954</ele>
        <time>2017-09-17T08:51:58Z</time>
      </trkpt>
      <trkpt lat="49.15432" lon="7.46218">
        <ele>345.35467319734</ele>
        <time>2017-09-17T08:52:07Z</time>
      </trkpt>
      <trkpt lat="49.15427" lon="7.46231">
        <ele>345.87691568701</ele>
        <time>2017-09-17T08:52:16Z</time>
      </trkpt>
      <trkpt lat="49.15424" lon="7.46246">
        <ele>346.78229348109</ele>
        <time>2017-09-17T08:52:25Z</time>
      </trkpt>
      <trkpt lat="49.15426" lon="7.46263">
        <ele>347.6442842406</ele>
        <time>2017-09-17T08:52:35Z</time>
      </trkpt>
      <trkpt lat="49.1543" lon="7.46277">
        <ele>348.2184485863</ele>
        <time>2017-09-17T08:52:44Z</time>
      </trkpt>
      <trkpt lat="49.15432" lon="7.46294">
        <ele>349.26111958009</ele>
        <time>2017-09-17T08:52:54Z</time>
      </trkpt>
      <trkpt lat="49.15434" lon="7.4631">
        <ele>349.98657534429</ele>
        <time>2017-09-17T08:53:03Z</time>
      </trkpt>
      <trkpt lat="49.15432" lon="7.46321">
        <ele>350.59210791189</ele>
        <time>2017-09-17T08:53:12Z</time>
      </trkpt>
      <trkpt lat="49.15426" lon="7.46337">
        <ele>351.0392138406</ele>
        <time>2017-09-17T08:53:21Z</time>
      </trkpt>
      <trkpt lat="49.1542" lon="7.46358">
        <ele>350.86792976981</ele>
        <time>2017-09-17T08:53:31Z</time>
      </trkpt>
      <trkpt lat="49.15414" lon="7.46367">
        <ele>350.50679191924</ele>
        <time>2017-09-17T08:53:40Z</time>
      </trkpt>
      <trkpt lat="49.15408" lon="7.46382">
        <ele>350.51247848148</ele>
        <time>2017-09-17T08:53:49Z</time>
      </trkpt>
      <trkpt lat="49.15403" lon="7.46395">
        <ele>350.96282883127</ele>
        <time>2017-09-17T08:53:58Z</time>
      </trkpt>
      <trkpt lat="49.15397" lon="7.46411">
        <ele>351.62911284627</ele>
        <time>2017-09-17T08:54:08Z</time>
      </trkpt>
      <trkpt lat="49.15391" lon="7.46426">
        <ele>352.13282258923</ele>
        <time>2017-09-17T08:54:18Z</time>
      </trkpt>
      <trkpt lat="49.15387" lon="7.46441">
        <ele>352.46751659997</ele>
        <time>2017-09-17T08:54:27Z</time>
      </trkpt>
      <trkpt lat="49.15381" lon="7.46456">
        <ele>352.91476359715</ele>
        <time>2017-09-17T08:54:37Z</time>
      </trkpt>
      <trkpt lat="49.15385" lon="7.46474">
        <ele>352.93112900717</ele>
        <time>2017-09-17T08:54:46Z</time>
      </trkpt>
      <trkpt lat="49.15393" lon="7.46484">
        <ele>353.20799930468</ele>
        <time>2017-09-17T08:54:55Z</time>
      </trkpt>
      <trkpt lat="49.154" lon="7.46495">
        <ele>354.23729781418</ele>
        <time>2017-09-17T08:55:04Z</time>
      </trkpt>
      <trkpt lat="49.15406" lon="7.46512">
        <ele>355.51257475376</ele>
        <time>2017-09-17T08:55:14Z</time>
      </trkpt>
      <trkpt lat="49.1541" lon="7.46526">
        <ele>356.39105263966</ele>
        <time>2017-09-17T08:55:23Z</time>
      </trkpt>
      <trkpt lat="49.15407" lon="7.46546">
        <ele>357.13237483389</ele>
        <time>2017-09-17T08:55:33Z</time>
      </trkpt>
      <trkpt lat="49.15401" lon="7.46562">
        <ele>357.7959677424</ele>
        <time>2017-09-17T08:55:42Z</time>
      </trkpt>
      <trkpt lat="49.15392" lon="7.46577">
        <ele>358.69350009153</ele>
        <time>2017-09-17T08:55:52Z</time>
      </trkpt>
      <trkpt lat="49.15384" lon="7.46597">
        <ele>358.91126601376</ele>
        <time>2017-09-17T08:56:02Z</time>
      </trkpt>
      <trkpt lat="49.1538" lon="7.46612">
        <ele>358.30637027673</ele>
        <time>2017-09-17T08:56:11Z</time>
      </trkpt>
      <trkpt lat="49.15373" lon="7.46619">
        <ele>358.21211780337</ele>
        <time>2017-09-17T08:56:20Z</time>
      </trkpt>
      <trkpt lat="49.15365" lon="7.46633">
        <ele>359.07392134506</ele>
        <time>2017-09-17T08:56:30Z</time>
      </trkpt>
      <trkpt lat="49.15363" lon="7.46651">
        <ele>358.93163144742</ele>
        <time>2017-09-17T08:56:40Z</time>
      </trkpt>
      <trkpt lat="49.15357" lon="7.46663">
        <ele>358.71375731354</ele>
        <time>2017-09-17T08:56:49Z</time>
      </trkpt>
      <trkpt lat="49.15348" lon="7.46677">
        <ele>357.63567295264</ele>
        <time>2017-09-17T08:56:59Z</time>
      </trkpt>
      <trkpt lat="49.15345" lon="7.46694">
        <ele>356.626514765</ele>
        <time>2017-09-17T08:57:08Z</time>
      </trkpt>
      <trkpt lat="49.15342" lon="7.46714">
        <ele>355.95665593914</ele>
        <time>2017-09-17T08:57:18Z</time>
      </trkpt>
      <trkpt lat="49.15336" lon="7.4673">
        <ele>355.17161916746</ele>
        <time>2017-09-17T08:57:27Z</time>
      </trkpt>
      <trkpt lat="49.15334" lon="7.46752">
        <ele>353.99540359816</ele>
        <time>2017-09-17T08:57:37Z</time>
      </trkpt>
      <trkpt lat="49.15326" lon="7.46766">
        <ele>353.40390332822</ele>
        <time>2017-09-17T08:57:47Z</time>
      </trkpt>
      <trkpt lat="49.15319" lon="7.46782">
        <ele>352.79017826407</ele>
        <time>2017-09-17T08:57:57Z</time>
      </trkpt>
      <trkpt lat="49.15316" lon="7.46797">
        <ele>352.43394569068</ele>
        <time>2017-09-17T08:58:06Z</time>
      </trkpt>
      <trkpt lat="49.15316" lon="7.4681">
        <ele>352.35785845322</ele>
        <time>2017-09-17T08:58:15Z</time>
      </trkpt>
      <trkpt lat="49.15314" lon="7.4683">
        <ele>353.34189942106</ele>
        <time>2017-09-17T08:58:25Z</time>
      </trkpt>
      <trkpt lat="49.15319" lon="7.46853">
        <ele>355.31026773416</ele>
        <time>2017-09-17T08:58:35Z</time>
      </trkpt>
      <trkpt lat="49.15321" lon="7.4687">
        <ele>357.12531435095</ele>
        <time>2017-09-17T08:58:44Z</time>
      </trkpt>
      <trkpt lat="49.15326" lon="7.46884">
        <ele>359.43822610164</ele>
        <time>2017-09-17T08:58:53Z</time>
      </trkpt>
      <trkpt lat="49.15327" lon="7.46905">
        <ele>362.10163826768</ele>
        <time>2017-09-17T08:59:03Z</time>
      </trkpt>
      <trkpt lat="49.15328" lon="7.46924">
        <ele>363.57174245324</ele>
        <time>2017-09-17T08:59:12Z</time>
      </trkpt>
      <trkpt lat="49.15327" lon="7.46941">
        <ele>365.73686411317</ele>
        <time>2017-09-17T08:59:21Z</time>
      </trkpt>
      <trkpt lat="49.1533" lon="7.46957">
        <ele>367.93409509221</ele>
        <time>2017-09-17T08:59:30Z</time>
      </trkpt>
      <trkpt lat="49.15333" lon="7.46978">
        <ele>369.22577181014</ele>
        <time>2017-09-17T08:59:40Z</time>
      </trkpt>
      <trkpt lat="49.15339" lon="7.46996">
        <ele>370.12464254789</ele>
        <time>2017-09-17T08:59:49Z</time>
      </trkpt>
      <trkpt lat="49.15333" lon="7.47026">
        <ele>371.50562801199</ele>
        <time>2017-09-17T08:59:59Z</time>
      </trkpt>
      <trkpt lat="49.15338" lon="7.47037">
        <ele>370.61326391345</ele>
        <time>2017-09-17T09:00:09Z</time>
      </trkpt>
      <trkpt lat="49.15341" lon="7.47057">
        <ele>370.05626005557</ele>
        <time>2017-09-17T09:00:18Z</time>
      </trkpt>
      <trkpt lat="49.1534" lon="7.47072">
        <ele>369.25487923357</ele>
        <time>2017-09-17T09:00:27Z</time>
      </trkpt>
      <trkpt lat="49.15346" lon="7.47095">
        <ele>367.72460948373</ele>
        <time>2017-09-17T09:00:37Z</time>
      </trkpt>
      <trkpt lat="49.15349" lon="7.47112">
        <ele>366.37900179456</ele>
        <time>2017-09-17T09:00:46Z</time>
      </trkpt>
      <trkpt lat="49.15338" lon="7.47125">
        <ele>364.20411915331</ele>
        <time>2017-09-17T09:00:55Z</time>
      </trkpt>
      <trkpt lat="49.15326" lon="7.47119">
        <ele>362.22606910626</ele>
        <time>2017-09-17T09:01:05Z</time>
      </trkpt>
      <trkpt lat="49.15315" lon="7.47116">
        <ele>360.73748001005</ele>
        <time>2017-09-17T09:01:14Z</time>
      </trkpt>
      <trkpt lat="49.1531" lon="7.47104">
        <ele>359.21436279985</ele>
        <time>2017-09-17T09:01:23Z</time>
      </trkpt>
      <trkpt lat="49.15299" lon="7.47095">
        <ele>357.68415009716</ele>
        <time>2017-09-17T09:01:32Z</time>
      </trkpt>
      <trkpt lat="49.15286" lon="7.47083">
        <ele>358.66852974705</ele>
        <time>2017-09-17T09:01:42Z</time>
      </trkpt>
      <trkpt lat="49.1527" lon="7.47075">
        <ele>359.16878926553</ele>
        <time>2017-09-17T09:01:51Z</time>
      </trkpt>
      <trkpt lat="49.1526" lon="7.47068">
        <ele>358.45770786108</ele>
        <time>2017-09-17T09:02:00Z</time>
      </trkpt>
      <trkpt lat="49.15246" lon="7.47065">
        <ele>357.19472217382</ele>
        <time>2017-09-17T09:02:10Z</time>
      </trkpt>
      <trkpt lat="49.15235" lon="7.47061">
        <ele>354.94783493837</ele>
        <time>2017-09-17T09:02:20Z</time>
      </trkpt>
      <trkpt lat="49.15226" lon="7.47059">
        <ele>353.31388418051</ele>
        <time>2017-09-17T09:02:29Z</time>
      </trkpt>
      <trkpt lat="49.15219" lon="7.47066">
        <ele>352.51519082946</ele>
        <time>2017-09-17T09:02:40Z</time>
      </trkpt>
      <trkpt lat="49.15211" lon="7.47073">
        <ele>351.40984871791</ele>
        <time>2017-09-17T09:02:49Z</time>
      </trkpt>
      <trkpt lat="49.15192" lon="7.47075">
        <ele>349.51704031503</ele>
        <time>2017-09-17T09:02:58Z</time>
      </trkpt>
      <trkpt lat="49.15179" lon="7.4708">
        <ele>347.44749578747</ele>
        <time>2017-09-17T09:03:07Z</time>
      </trkpt>
      <trkpt lat="49.15167" lon="7.47084">
        <ele>345.60353920406</ele>
        <time>2017-09-17T09:03:16Z</time>
      </trkpt>
      <trkpt lat="49.15158" lon="7.47087">
        <ele>343.82268711934</ele>
        <time>2017-09-17T09:03:25Z</time>
      </trkpt>
      <trkpt lat="49.15146" lon="7.47096">
        <ele>341.65708634407</ele>
        <time>2017-09-17T09:03:35Z</time>
      </trkpt>
      <trkpt lat="49.15137" lon="7.47102">
        <ele>339.62833796203</ele>
        <time>2017-09-17T09:03:44Z</time>
      </trkpt>
      <trkpt lat="49.15127" lon="7.47109">
        <ele>337.54859166591</ele>
        <time>2017-09-17T09:03:53Z</time>
      </trkpt>
      <trkpt lat="49.15117" lon="7.47115">
        <ele>335.48468093891</ele>
        <time>2017-09-17T09:04:02Z</time>
      </trkpt>
      <trkpt lat="49.15107" lon="7.47122">
        <ele>333.61942401303</ele>
        <time>2017-09-17T09:04:12Z</time>
      </trkpt>
      <trkpt lat="49.151" lon="7.47138">
        <ele>332.40597596648</ele>
        <time>2017-09-17T09:04:22Z</time>
      </trkpt>
      <trkpt lat="49.15094" lon="7.47159">
        <ele>332.32508191802</ele>
        <time>2017-09-17T09:04:31Z</time>
      </trkpt>
      <trkpt lat="49.15091" lon="7.47171">
        <ele>331.67802490941</ele>
        <time>2017-09-17T09:04:40Z</time>
      </trkpt>
      <trkpt lat="49.15088" lon="7.47188">
        <ele>330.47776424317</ele>
        <time>2017-09-17T09:04:49Z</time>
      </trkpt>
      <trkpt lat="49.15087" lon="7.47207">
        <ele>328.93829341161</ele>
        <time>2017-09-17T09:04:59Z</time>
      </trkpt>
      <trkpt lat="49.15084" lon="7.47224">
        <ele>328.00546121095</ele>
        <time>2017-09-17T09:05:08Z</time>
      </trkpt>
      <trkpt lat="49.15077" lon="7.47236">
        <ele>327.34069138866</ele>
        <time>2017-09-17T09:05:17Z</time>
      </trkpt>
      <trkpt lat="49.15073" lon="7.47252">
        <ele>326.56874196658</ele>
        <time>2017-09-17T09:05:26Z</time>
      </trkpt>
      <trkpt lat="49.15066" lon="7.4726">
        <ele>326.0638861504</ele>
        <time>2017-09-17T09:05:39Z</time>
      </trkpt>
      <trkpt lat="49.15054" lon="7.47269">
        <ele>326.72277053392</ele>
        <time>2017-09-17T09:05:48Z</time>
      </trkpt>
      <trkpt lat="49.15047" lon="7.47275">
        <ele>326.60793339363</ele>
        <time>2017-09-17T09:06:08Z</time>
      </trkpt>
      <trkpt lat="49.15036" lon="7.47281">
        <ele>325.98858628829</ele>
        <time>2017-09-17T09:06:17Z</time>
      </trkpt>
      <trkpt lat="49.15027" lon="7.47292">
        <ele>325.28138564552</ele>
        <time>2017-09-17T09:06:27Z</time>
      </trkpt>
      <trkpt lat="49.15022" lon="7.47301">
        <ele>324.16260257562</ele>
        <time>2017-09-17T09:06:36Z</time>
      </trkpt>
      <trkpt lat="49.15013" lon="7.47331">
        <ele>322.93837728083</ele>
        <time>2017-09-17T09:06:46Z</time>
      </trkpt>
      <trkpt lat="49.15007" lon="7.47346">
        <ele>321.70049409144</ele>
        <time>2017-09-17T09:06:55Z</time>
      </trkpt>
      <trkpt lat="49.15" lon="7.47358">
        <ele>321.02851900043</ele>
        <time>2017-09-17T09:07:04Z</time>
      </trkpt>
      <trkpt lat="49.14987" lon="7.47369">
        <ele>320.71039963487</ele>
        <time>2017-09-17T09:07:13Z</time>
      </trkpt>
      <trkpt lat="49.14972" lon="7.47379">
        <ele>320.42032081989</ele>
        <time>2017-09-17T09:07:23Z</time>
      </trkpt>
      <trkpt lat="49.14962" lon="7.47376">
        <ele>319.300930837</ele>
        <time>2017-09-17T09:07:32Z</time>
      </trkpt>
      <trkpt lat="49.14954" lon="7.47391">
        <ele>317.37254344126</ele>
        <time>2017-09-17T09:07:41Z</time>
      </trkpt>
      <trkpt lat="49.14944" lon="7.47394">
        <ele>315.43253880265</ele>
        <time>2017-09-17T09:07:50Z</time>
      </trkpt>
      <trkpt lat="49.14925" lon="7.47397">
        <ele>312.51024719971</ele>
        <time>2017-09-17T09:08:00Z</time>
      </trkpt>
      <trkpt lat="49.14917" lon="7.47399">
        <ele>310.40103096522</ele>
        <time>2017-09-17T09:08:10Z</time>
      </trkpt>
      <trkpt lat="49.14908" lon="7.474">
        <ele>308.0582554778</ele>
        <time>2017-09-17T09:08:23Z</time>
      </trkpt>
      <trkpt lat="49.14897" lon="7.47399">
        <ele>307.28545245767</ele>
        <time>2017-09-17T09:08:32Z</time>
      </trkpt>
      <trkpt lat="49.14887" lon="7.47388">
        <ele>307.29105838541</ele>
        <time>2017-09-17T09:08:42Z</time>
      </trkpt>
      <trkpt lat="49.14877" lon="7.47377">
        <ele>307.19309008813</ele>
        <time>2017-09-17T09:08:51Z</time>
      </trkpt>
      <trkpt lat="49.14867" lon="7.47364">
        <ele>306.59432248064</ele>
        <time>2017-09-17T09:09:01Z</time>
      </trkpt>
      <trkpt lat="49.14858" lon="7.47348">
        <ele>306.3989618939</ele>
        <time>2017-09-17T09:09:11Z</time>
      </trkpt>
      <trkpt lat="49.14855" lon="7.47335">
        <ele>305.34610046042</ele>
        <time>2017-09-17T09:09:20Z</time>
      </trkpt>
      <trkpt lat="49.14841" lon="7.47326">
        <ele>303.3740386148</ele>
        <time>2017-09-17T09:09:30Z</time>
      </trkpt>
      <trkpt lat="49.1483" lon="7.47332">
        <ele>301.74558601151</ele>
        <time>2017-09-17T09:09:39Z</time>
      </trkpt>
      <trkpt lat="49.14826" lon="7.47349">
        <ele>300.58214007172</ele>
        <time>2017-09-17T09:09:49Z</time>
      </trkpt>
      <trkpt lat="49.14833" lon="7.47368">
        <ele>299.90308390213</ele>
        <time>2017-09-17T09:09:58Z</time>
      </trkpt>
      <trkpt lat="49.14838" lon="7.47384">
        <ele>298.12419695472</ele>
        <time>2017-09-17T09:10:08Z</time>
      </trkpt>
      <trkpt lat="49.14842" lon="7.47399">
        <ele>296.34507738743</ele>
        <time>2017-09-17T09:10:17Z</time>
      </trkpt>
      <trkpt lat="49.14848" lon="7.47414">
        <ele>295.02212449764</ele>
        <time>2017-09-17T09:10:26Z</time>
      </trkpt>
      <trkpt lat="49.14851" lon="7.47428">
        <ele>293.88144791709</ele>
        <time>2017-09-17T09:10:36Z</time>
      </trkpt>
      <trkpt lat="49.14857" lon="7.47444">
        <ele>292.42795696692</ele>
        <time>2017-09-17T09:10:45Z</time>
      </trkpt>
      <trkpt lat="49.14863" lon="7.47457">
        <ele>291.5821836736</ele>
        <time>2017-09-17T09:10:54Z</time>
      </trkpt>
      <trkpt lat="49.14867" lon="7.4747">
        <ele>289.80384088748</ele>
        <time>2017-09-17T09:11:04Z</time>
      </trkpt>
      <trkpt lat="49.14875" lon="7.47488">
        <ele>288.31703318187</ele>
        <time>2017-09-17T09:11:13Z</time>
      </trkpt>
      <trkpt lat="49.1488" lon="7.47509">
        <ele>287.70904308181</ele>
        <time>2017-09-17T09:11:23Z</time>
      </trkpt>
      <trkpt lat="49.14883" lon="7.47524">
        <ele>287.34587235169</ele>
        <time>2017-09-17T09:11:32Z</time>
      </trkpt>
      <trkpt lat="49.14882" lon="7.47536">
        <ele>286.6876897814</ele>
        <time>2017-09-17T09:11:41Z</time>
      </trkpt>
      <trkpt lat="49.1488" lon="7.47552">
        <ele>285.83746576261</ele>
        <time>2017-09-17T09:11:50Z</time>
      </trkpt>
      <trkpt lat="49.1488" lon="7.47569">
        <ele>284.60197125025</ele>
        <time>2017-09-17T09:12:00Z</time>
      </trkpt>
      <trkpt lat="49.1488" lon="7.47584">
        <ele>283.58765773269</ele>
        <time>2017-09-17T09:12:09Z</time>
      </trkpt>
      <trkpt lat="49.14882" lon="7.47598">
        <ele>282.65636279596</ele>
        <time>2017-09-17T09:12:18Z</time>
      </trkpt>
      <trkpt lat="49.14887" lon="7.47611">
        <ele>281.56073159236</ele>
        <time>2017-09-17T09:12:27Z</time>
      </trkpt>
      <trkpt lat="49.14894" lon="7.47627">
        <ele>280.20864630559</ele>
        <time>2017-09-17T09:12:37Z</time>
      </trkpt>
      <trkpt lat="49.14895" lon="7.47645">
        <ele>278.69287538406</ele>
        <time>2017-09-17T09:12:47Z</time>
      </trkpt>
      <trkpt lat="49.14894" lon="7.47664">
        <ele>277.37758464668</ele>
        <time>2017-09-17T09:12:57Z</time>
      </trkpt>
      <trkpt lat="49.14899" lon="7.47683">
        <ele>276.68876532579</ele>
        <time>2017-09-17T09:13:06Z</time>
      </trkpt>
      <trkpt lat="49.14898" lon="7.47696">
        <ele>275.56761200529</ele>
        <time>2017-09-17T09:13:15Z</time>
      </trkpt>
      <trkpt lat="49.14905" lon="7.47725">
        <ele>275.75767979103</ele>
        <time>2017-09-17T09:13:25Z</time>
      </trkpt>
      <trkpt lat="49.14912" lon="7.47733">
        <ele>274.68519721002</ele>
        <time>2017-09-17T09:13:35Z</time>
      </trkpt>
      <trkpt lat="49.14918" lon="7.47754">
        <ele>273.83161952868</ele>
        <time>2017-09-17T09:13:44Z</time>
      </trkpt>
      <trkpt lat="49.14924" lon="7.47769">
        <ele>273.28908441442</ele>
        <time>2017-09-17T09:13:53Z</time>
      </trkpt>
      <trkpt lat="49.14929" lon="7.47777">
        <ele>272.28938976207</ele>
        <time>2017-09-17T09:14:02Z</time>
      </trkpt>
      <trkpt lat="49.14931" lon="7.47799">
        <ele>270.88493008956</ele>
        <time>2017-09-17T09:14:12Z</time>
      </trkpt>
      <trkpt lat="49.14933" lon="7.47815">
        <ele>269.22519399055</ele>
        <time>2017-09-17T09:14:22Z</time>
      </trkpt>
      <trkpt lat="49.14937" lon="7.47835">
        <ele>268.04681687485</ele>
        <time>2017-09-17T09:14:31Z</time>
      </trkpt>
      <trkpt lat="49.1494" lon="7.47848">
        <ele>268.20253818159</ele>
        <time>2017-09-17T09:14:41Z</time>
      </trkpt>
      <trkpt lat="49.14941" lon="7.47864">
        <ele>268.07159802568</ele>
        <time>2017-09-17T09:14:50Z</time>
      </trkpt>
      <trkpt lat="49.14947" lon="7.47888">
        <ele>268.82760673709</ele>
        <time>2017-09-17T09:15:00Z</time>
      </trkpt>
      <trkpt lat="49.14952" lon="7.47905">
        <ele>271.00474618415</ele>
        <time>2017-09-17T09:15:10Z</time>
      </trkpt>
      <trkpt lat="49.14961" lon="7.47923">
        <ele>271.08046162286</ele>
        <time>2017-09-17T09:15:19Z</time>
      </trkpt>
      <trkpt lat="49.14967" lon="7.47941">
        <ele>270.13186662459</ele>
        <time>2017-09-17T09:15:29Z</time>
      </trkpt>
      <trkpt lat="49.14971" lon="7.47959">
        <ele>268.84308872971</ele>
        <time>2017-09-17T09:15:38Z</time>
      </trkpt>
      <trkpt lat="49.14977" lon="7.47979">
        <ele>268.67970450031</ele>
        <time>2017-09-17T09:15:47Z</time>
      </trkpt>
      <trkpt lat="49.14971" lon="7.47996">
        <ele>268.69097615645</ele>
        <time>2017-09-17T09:15:57Z</time>
      </trkpt>
      <trkpt lat="49.14969" lon="7.48009">
        <ele>267.36378264045</ele>
        <time>2017-09-17T09:16:06Z</time>
      </trkpt>
      <trkpt lat="49.14965" lon="7.4802">
        <ele>266.01314417964</ele>
        <time>2017-09-17T09:16:16Z</time>
      </trkpt>
      <trkpt lat="49.14967" lon="7.48036">
        <ele>265.20860957697</ele>
        <time>2017-09-17T09:16:25Z</time>
      </trkpt>
      <trkpt lat="49.14966" lon="7.48058">
        <ele>264.96268238961</ele>
        <time>2017-09-17T09:16:34Z</time>
      </trkpt>
      <trkpt lat="49.14966" lon="7.48075">
        <ele>265.24127305352</ele>
        <time>2017-09-17T09:16:43Z</time>
      </trkpt>
      <trkpt lat="49.14967" lon="7.48092">
        <ele>265.00415132321</ele>
        <time>2017-09-17T09:16:52Z</time>
      </trkpt>
      <trkpt lat="49.14967" lon="7.48109">
        <ele>264.53369920644</ele>
        <time>2017-09-17T09:17:01Z</time>
      </trkpt>
      <trkpt lat="49.14967" lon="7.48125">
        <ele>264.09283804487</ele>
        <time>2017-09-17T09:17:10Z</time>
      </trkpt>
      <trkpt lat="49.14968" lon="7.48144">
        <ele>264.51765463405</ele>
        <time>2017-09-17T09:17:19Z</time>
      </trkpt>
      <trkpt lat="49.14958" lon="7.48162">
        <ele>265.09704160236</ele>
        <time>2017-09-17T09:17:28Z</time>
      </trkpt>
      <trkpt lat="49.1494" lon="7.48173">
        <ele>266.0348544951</ele>
        <time>2017-09-17T09:17:38Z</time>
      </trkpt>
      <trkpt lat="49.14927" lon="7.48181">
        <ele>267.01918243353</ele>
        <time>2017-09-17T09:17:48Z</time>
      </trkpt>
      <trkpt lat="49.14918" lon="7.48191">
        <ele>268.13295327536</ele>
        <time>2017-09-17T09:17:58Z</time>
      </trkpt>
      <trkpt lat="49.14919" lon="7.48205">
        <ele>267.7544708754</ele>
        <time>2017-09-17T09:18:07Z</time>
      </trkpt>
      <trkpt lat="49.14923" lon="7.48224">
        <ele>266.796629118</ele>
        <time>2017-09-17T09:18:16Z</time>
      </trkpt>
      <trkpt lat="49.14924" lon="7.48242">
        <ele>266.10549438754</ele>
        <time>2017-09-17T09:18:26Z</time>
      </trkpt>
      <trkpt lat="49.14925" lon="7.48259">
        <ele>265.21151435043</ele>
        <time>2017-09-17T09:18:35Z</time>
      </trkpt>
      <trkpt lat="49.14917" lon="7.4827">
        <ele>264.6268787555</ele>
        <time>2017-09-17T09:18:44Z</time>
      </trkpt>
      <trkpt lat="49.14909" lon="7.48277">
        <ele>263.64943918611</ele>
        <time>2017-09-17T09:18:57Z</time>
      </trkpt>
      <trkpt lat="49.14902" lon="7.48285">
        <ele>263.84096130091</ele>
        <time>2017-09-17T09:19:29Z</time>
      </trkpt>
      <trkpt lat="49.14896" lon="7.48293">
        <ele>264.03382207459</ele>
        <time>2017-09-17T09:20:01Z</time>
      </trkpt>
      <trkpt lat="49.14888" lon="7.48286">
        <ele>263.29316117301</ele>
        <time>2017-09-17T09:27:28Z</time>
      </trkpt>
      <trkpt lat="49.14896" lon="7.48282">
        <ele>260.83803728333</ele>
        <time>2017-09-17T09:29:00Z</time>
      </trkpt>
      <trkpt lat="49.1489" lon="7.48292">
        <ele>266.3902274846</ele>
        <time>2017-09-17T09:37:59Z</time>
      </trkpt>
      <trkpt lat="49.14887" lon="7.48279">
        <ele>263.93332116823</ele>
        <time>2017-09-17T09:39:04Z</time>
      </trkpt>
      <trkpt lat="49.14893" lon="7.4827">
        <ele>260.31422307613</ele>
        <time>2017-09-17T09:40:18Z</time>
      </trkpt>
      <trkpt lat="49.14901" lon="7.48274">
        <ele>257.07728479714</ele>
        <time>2017-09-17T09:42:06Z</time>
      </trkpt>
      <trkpt lat="49.14901" lon="7.48288">
        <ele>257.42717534693</ele>
        <time>2017-09-17T09:42:21Z</time>
      </trkpt>
      <trkpt lat="49.14903" lon="7.483">
        <ele>261.58192034097</ele>
        <time>2017-09-17T09:54:30Z</time>
      </trkpt>
      <trkpt lat="49.149" lon="7.48287">
        <ele>260.62705926349</ele>
        <time>2017-09-17T09:55:50Z</time>
      </trkpt>
      <trkpt lat="49.14902" lon="7.48275">
        <ele>260.32669571458</ele>
        <time>2017-09-17T09:56:09Z</time>
      </trkpt>
      <trkpt lat="49.14911" lon="7.4827">
        <ele>259.71859764796</ele>
        <time>2017-09-17T09:56:31Z</time>
      </trkpt>
      <trkpt lat="49.14918" lon="7.48265">
        <ele>259.43252318816</ele>
        <time>2017-09-17T09:56:43Z</time>
      </trkpt>
      <trkpt lat="49.14923" lon="7.48253">
        <ele>259.11809453377</ele>
        <time>2017-09-17T09:56:52Z</time>
      </trkpt>
      <trkpt lat="49.14923" lon="7.48239">
        <ele>258.61927854344</ele>
        <time>2017-09-17T09:57:01Z</time>
      </trkpt>
      <trkpt lat="49.14921" lon="7.48224">
        <ele>258.27401710288</ele>
        <time>2017-09-17T09:57:10Z</time>
      </trkpt>
      <trkpt lat="49.14918" lon="7.48209">
        <ele>257.95056786812</ele>
        <time>2017-09-17T09:57:19Z</time>
      </trkpt>
      <trkpt lat="49.14915" lon="7.48197">
        <ele>257.50459757126</ele>
        <time>2017-09-17T09:57:29Z</time>
      </trkpt>
      <trkpt lat="49.14914" lon="7.48184">
        <ele>257.24201569903</ele>
        <time>2017-09-17T09:57:41Z</time>
      </trkpt>
      <trkpt lat="49.14919" lon="7.48173">
        <ele>257.28293586739</ele>
        <time>2017-09-17T09:57:51Z</time>
      </trkpt>
      <trkpt lat="49.14932" lon="7.48168">
        <ele>257.70766377361</ele>
        <time>2017-09-17T09:58:01Z</time>
      </trkpt>
      <trkpt lat="49.14941" lon="7.48167">
        <ele>258.1439411877</ele>
        <time>2017-09-17T09:58:10Z</time>
      </trkpt>
      <trkpt lat="49.14952" lon="7.48164">
        <ele>258.75643856943</ele>
        <time>2017-09-17T09:58:20Z</time>
      </trkpt>
      <trkpt lat="49.14959" lon="7.48157">
        <ele>259.40080400047</ele>
        <time>2017-09-17T09:58:30Z</time>
      </trkpt>
      <trkpt lat="49.14962" lon="7.48139">
        <ele>260.03539315692</ele>
        <time>2017-09-17T09:58:40Z</time>
      </trkpt>
      <trkpt lat="49.14959" lon="7.48122">
        <ele>260.43185653681</ele>
        <time>2017-09-17T09:58:50Z</time>
      </trkpt>
      <trkpt lat="49.14957" lon="7.48109">
        <ele>260.49990626927</ele>
        <time>2017-09-17T09:58:59Z</time>
      </trkpt>
      <trkpt lat="49.14958" lon="7.48095">
        <ele>260.11055989064</ele>
        <time>2017-09-17T09:59:08Z</time>
      </trkpt>
      <trkpt lat="49.14957" lon="7.48077">
        <ele>259.70467795062</ele>
        <time>2017-09-17T09:59:18Z</time>
      </trkpt>
      <trkpt lat="49.14959" lon="7.48061">
        <ele>259.64166794318</ele>
        <time>2017-09-17T09:59:27Z</time>
      </trkpt>
      <trkpt lat="49.14959" lon="7.48048">
        <ele>259.58823758858</ele>
        <time>2017-09-17T09:59:37Z</time>
      </trkpt>
      <trkpt lat="49.14956" lon="7.48029">
        <ele>259.73229846383</ele>
        <time>2017-09-17T09:59:46Z</time>
      </trkpt>
      <trkpt lat="49.14959" lon="7.48016">
        <ele>259.32900216648</ele>
        <time>2017-09-17T09:59:56Z</time>
      </trkpt>
      <trkpt lat="49.14967" lon="7.48002">
        <ele>258.99897700876</ele>
        <time>2017-09-17T10:00:06Z</time>
      </trkpt>
      <trkpt lat="49.14974" lon="7.47992">
        <ele>258.96655362869</ele>
        <time>2017-09-17T10:00:15Z</time>
      </trkpt>
      <trkpt lat="49.14982" lon="7.47984">
        <ele>259.51150711066</ele>
        <time>2017-09-17T10:00:25Z</time>
      </trkpt>
      <trkpt lat="49.14991" lon="7.4798">
        <ele>261.03398666465</ele>
        <time>2017-09-17T10:00:35Z</time>
      </trkpt>
      <trkpt lat="49.15" lon="7.47974">
        <ele>262.15285065785</ele>
        <time>2017-09-17T10:00:44Z</time>
      </trkpt>
      <trkpt lat="49.15009" lon="7.47968">
        <ele>262.69399221949</ele>
        <time>2017-09-17T10:00:54Z</time>
      </trkpt>
      <trkpt lat="49.15015" lon="7.47959">
        <ele>263.40132305497</ele>
        <time>2017-09-17T10:01:05Z</time>
      </trkpt>
      <trkpt lat="49.15022" lon="7.47949">
        <ele>263.31310306743</ele>
        <time>2017-09-17T10:01:14Z</time>
      </trkpt>
      <trkpt lat="49.1503" lon="7.47939">
        <ele>263.88634092601</ele>
        <time>2017-09-17T10:01:23Z</time>
      </trkpt>
      <trkpt lat="49.15036" lon="7.47931">
        <ele>265.25472432508</ele>
        <time>2017-09-17T10:01:34Z</time>
      </trkpt>
      <trkpt lat="49.15046" lon="7.47927">
        <ele>266.61594119371</ele>
        <time>2017-09-17T10:01:44Z</time>
      </trkpt>
      <trkpt lat="49.15057" lon="7.47923">
        <ele>268.07588699918</ele>
        <time>2017-09-17T10:01:53Z</time>
      </trkpt>
      <trkpt lat="49.15069" lon="7.47914">
        <ele>269.07134043113</ele>
        <time>2017-09-17T10:02:03Z</time>
      </trkpt>
      <trkpt lat="49.15077" lon="7.4791">
        <ele>268.70249450392</ele>
        <time>2017-09-17T10:02:13Z</time>
      </trkpt>
      <trkpt lat="49.15089" lon="7.47909">
        <ele>270.06588055696</ele>
        <time>2017-09-17T10:02:22Z</time>
      </trkpt>
      <trkpt lat="49.151" lon="7.47899">
        <ele>271.27459002272</ele>
        <time>2017-09-17T10:02:32Z</time>
      </trkpt>
      <trkpt lat="49.15099" lon="7.47886">
        <ele>272.2000713641</ele>
        <time>2017-09-17T10:02:44Z</time>
      </trkpt>
      <trkpt lat="49.15098" lon="7.47872">
        <ele>273.15242517599</ele>
        <time>2017-09-17T10:02:54Z</time>
      </trkpt>
      <trkpt lat="49.15092" lon="7.47862">
        <ele>274.09079130811</ele>
        <time>2017-09-17T10:03:05Z</time>
      </trkpt>
      <trkpt lat="49.15088" lon="7.47849">
        <ele>274.46226712625</ele>
        <time>2017-09-17T10:03:14Z</time>
      </trkpt>
      <trkpt lat="49.15087" lon="7.47837">
        <ele>274.97543157142</ele>
        <time>2017-09-17T10:03:23Z</time>
      </trkpt>
      <trkpt lat="49.15082" lon="7.47824">
        <ele>276.11848646182</ele>
        <time>2017-09-17T10:03:33Z</time>
      </trkpt>
      <trkpt lat="49.15077" lon="7.47812">
        <ele>277.03374940187</ele>
        <time>2017-09-17T10:03:42Z</time>
      </trkpt>
      <trkpt lat="49.15079" lon="7.47792">
        <ele>277.26392199037</ele>
        <time>2017-09-17T10:03:51Z</time>
      </trkpt>
      <trkpt lat="49.15082" lon="7.4778">
        <ele>277.2250212457</ele>
        <time>2017-09-17T10:04:02Z</time>
      </trkpt>
      <trkpt lat="49.15088" lon="7.47757">
        <ele>276.84856911538</ele>
        <time>2017-09-17T10:04:12Z</time>
      </trkpt>
      <trkpt lat="49.15091" lon="7.47745">
        <ele>278.2387480443</ele>
        <time>2017-09-17T10:04:26Z</time>
      </trkpt>
      <trkpt lat="49.15095" lon="7.4773">
        <ele>279.06257245329</ele>
        <time>2017-09-17T10:04:36Z</time>
      </trkpt>
      <trkpt lat="49.15101" lon="7.47721">
        <ele>280.35209491531</ele>
        <time>2017-09-17T10:04:46Z</time>
      </trkpt>
      <trkpt lat="49.15103" lon="7.47707">
        <ele>281.65837840386</ele>
        <time>2017-09-17T10:04:56Z</time>
      </trkpt>
      <trkpt lat="49.15105" lon="7.47695">
        <ele>282.85257916761</ele>
        <time>2017-09-17T10:05:06Z</time>
      </trkpt>
      <trkpt lat="49.15106" lon="7.47677">
        <ele>283.82646497199</ele>
        <time>2017-09-17T10:05:15Z</time>
      </trkpt>
      <trkpt lat="49.15106" lon="7.47663">
        <ele>285.39740840013</ele>
        <time>2017-09-17T10:05:24Z</time>
      </trkpt>
      <trkpt lat="49.15109" lon="7.47647">
        <ele>287.24363877144</ele>
        <time>2017-09-17T10:05:34Z</time>
      </trkpt>
      <trkpt lat="49.15111" lon="7.4763">
        <ele>288.97832949791</ele>
        <time>2017-09-17T10:05:43Z</time>
      </trkpt>
      <trkpt lat="49.15113" lon="7.47613">
        <ele>290.48391412512</ele>
        <time>2017-09-17T10:05:52Z</time>
      </trkpt>
      <trkpt lat="49.15116" lon="7.476">
        <ele>291.87444357837</ele>
        <time>2017-09-17T10:06:03Z</time>
      </trkpt>
      <trkpt lat="49.15118" lon="7.47587">
        <ele>291.71005056462</ele>
        <time>2017-09-17T10:06:15Z</time>
      </trkpt>
      <trkpt lat="49.15117" lon="7.47575">
        <ele>290.87244483009</ele>
        <time>2017-09-17T10:06:25Z</time>
      </trkpt>
      <trkpt lat="49.15121" lon="7.47556">
        <ele>291.96401879426</ele>
        <time>2017-09-17T10:06:35Z</time>
      </trkpt>
      <trkpt lat="49.15123" lon="7.47546">
        <ele>293.41550392631</ele>
        <time>2017-09-17T10:06:44Z</time>
      </trkpt>
      <trkpt lat="49.15126" lon="7.47528">
        <ele>293.33059579482</ele>
        <time>2017-09-17T10:06:54Z</time>
      </trkpt>
      <trkpt lat="49.1513" lon="7.47517">
        <ele>293.93516762449</ele>
        <time>2017-09-17T10:07:03Z</time>
      </trkpt>
      <trkpt lat="49.15138" lon="7.47505">
        <ele>295.1274254612</ele>
        <time>2017-09-17T10:07:13Z</time>
      </trkpt>
      <trkpt lat="49.15146" lon="7.475">
        <ele>296.85296760455</ele>
        <time>2017-09-17T10:07:23Z</time>
      </trkpt>
      <trkpt lat="49.15153" lon="7.47492">
        <ele>296.87663178096</ele>
        <time>2017-09-17T10:07:36Z</time>
      </trkpt>
      <trkpt lat="49.15159" lon="7.47482">
        <ele>296.64332003776</ele>
        <time>2017-09-17T10:07:45Z</time>
      </trkpt>
      <trkpt lat="49.1517" lon="7.47483">
        <ele>296.63556268691</ele>
        <time>2017-09-17T10:07:55Z</time>
      </trkpt>
      <trkpt lat="49.15182" lon="7.47488">
        <ele>295.6952040187</ele>
        <time>2017-09-17T10:08:05Z</time>
      </trkpt>
      <trkpt lat="49.1519" lon="7.47488">
        <ele>295.02965841011</ele>
        <time>2017-09-17T10:08:14Z</time>
      </trkpt>
      <trkpt lat="49.15198" lon="7.47484">
        <ele>294.83289707675</ele>
        <time>2017-09-17T10:08:26Z</time>
      </trkpt>
      <trkpt lat="49.15208" lon="7.47477">
        <ele>295.4550748871</ele>
        <time>2017-09-17T10:08:36Z</time>
      </trkpt>
      <trkpt lat="49.15215" lon="7.4747">
        <ele>296.54066969328</ele>
        <time>2017-09-17T10:08:46Z</time>
      </trkpt>
      <trkpt lat="49.15221" lon="7.47464">
        <ele>298.68809459879</ele>
        <time>2017-09-17T10:08:57Z</time>
      </trkpt>
      <trkpt lat="49.15233" lon="7.47454">
        <ele>300.69417225952</ele>
        <time>2017-09-17T10:09:07Z</time>
      </trkpt>
      <trkpt lat="49.15244" lon="7.47448">
        <ele>302.73636572615</ele>
        <time>2017-09-17T10:09:17Z</time>
      </trkpt>
      <trkpt lat="49.15252" lon="7.47441">
        <ele>304.44233837742</ele>
        <time>2017-09-17T10:09:26Z</time>
      </trkpt>
      <trkpt lat="49.15258" lon="7.47434">
        <ele>306.29051312536</ele>
        <time>2017-09-17T10:09:37Z</time>
      </trkpt>
      <trkpt lat="49.15265" lon="7.47425">
        <ele>307.49424361212</ele>
        <time>2017-09-17T10:09:48Z</time>
      </trkpt>
      <trkpt lat="49.15271" lon="7.47416">
        <ele>308.6864616974</ele>
        <time>2017-09-17T10:09:58Z</time>
      </trkpt>
      <trkpt lat="49.15279" lon="7.47407">
        <ele>310.08418343327</ele>
        <time>2017-09-17T10:10:07Z</time>
      </trkpt>
      <trkpt lat="49.15287" lon="7.474">
        <ele>312.61635262061</ele>
        <time>2017-09-17T10:10:17Z</time>
      </trkpt>
      <trkpt lat="49.15295" lon="7.47394">
        <ele>314.99805136247</ele>
        <time>2017-09-17T10:10:27Z</time>
      </trkpt>
      <trkpt lat="49.15302" lon="7.47386">
        <ele>317.11431213696</ele>
        <time>2017-09-17T10:10:37Z</time>
      </trkpt>
      <trkpt lat="49.15308" lon="7.47376">
        <ele>318.72198751208</ele>
        <time>2017-09-17T10:10:46Z</time>
      </trkpt>
      <trkpt lat="49.15312" lon="7.47364">
        <ele>320.31250817062</ele>
        <time>2017-09-17T10:10:58Z</time>
      </trkpt>
      <trkpt lat="49.15315" lon="7.47347">
        <ele>321.52471324237</ele>
        <time>2017-09-17T10:11:08Z</time>
      </trkpt>
      <trkpt lat="49.15319" lon="7.47332">
        <ele>322.58961037494</ele>
        <time>2017-09-17T10:11:17Z</time>
      </trkpt>
      <trkpt lat="49.15326" lon="7.47316">
        <ele>323.56538182129</ele>
        <time>2017-09-17T10:11:27Z</time>
      </trkpt>
      <trkpt lat="49.1533" lon="7.473">
        <ele>324.35001726259</ele>
        <time>2017-09-17T10:11:36Z</time>
      </trkpt>
      <trkpt lat="49.15332" lon="7.47288">
        <ele>325.31184983981</ele>
        <time>2017-09-17T10:11:50Z</time>
      </trkpt>
      <trkpt lat="49.15333" lon="7.47275">
        <ele>326.3193202852</ele>
        <time>2017-09-17T10:12:00Z</time>
      </trkpt>
      <trkpt lat="49.15335" lon="7.4726">
        <ele>327.58807520825</ele>
        <time>2017-09-17T10:12:10Z</time>
      </trkpt>
      <trkpt lat="49.15337" lon="7.47245">
        <ele>328.69889415288</ele>
        <time>2017-09-17T10:12:20Z</time>
      </trkpt>
      <trkpt lat="49.15339" lon="7.47232">
        <ele>329.91131518974</ele>
        <time>2017-09-17T10:12:30Z</time>
      </trkpt>
      <trkpt lat="49.15341" lon="7.47214">
        <ele>331.20368565814</ele>
        <time>2017-09-17T10:12:40Z</time>
      </trkpt>
      <trkpt lat="49.15342" lon="7.472">
        <ele>332.59012883313</ele>
        <time>2017-09-17T10:12:50Z</time>
      </trkpt>
      <trkpt lat="49.15341" lon="7.47184">
        <ele>333.93122550651</ele>
        <time>2017-09-17T10:12:59Z</time>
      </trkpt>
      <trkpt lat="49.15341" lon="7.47173">
        <ele>335.0518760468</ele>
        <time>2017-09-17T10:13:08Z</time>
      </trkpt>
      <trkpt lat="49.15338" lon="7.47159">
        <ele>335.9371714261</ele>
        <time>2017-09-17T10:13:18Z</time>
      </trkpt>
      <trkpt lat="49.15334" lon="7.47147">
        <ele>336.65720635271</ele>
        <time>2017-09-17T10:13:28Z</time>
      </trkpt>
      <trkpt lat="49.15338" lon="7.47135">
        <ele>336.87878386252</ele>
        <time>2017-09-17T10:13:41Z</time>
      </trkpt>
      <trkpt lat="49.15347" lon="7.47137">
        <ele>336.80899482894</ele>
        <time>2017-09-17T10:13:52Z</time>
      </trkpt>
      <trkpt lat="49.15363" lon="7.4714">
        <ele>336.70767600359</ele>
        <time>2017-09-17T10:14:01Z</time>
      </trkpt>
      <trkpt lat="49.15377" lon="7.47149">
        <ele>337.17264124545</ele>
        <time>2017-09-17T10:14:11Z</time>
      </trkpt>
      <trkpt lat="49.15385" lon="7.47157">
        <ele>337.5234973763</ele>
        <time>2017-09-17T10:14:20Z</time>
      </trkpt>
      <trkpt lat="49.15395" lon="7.47163">
        <ele>338.09622025862</ele>
        <time>2017-09-17T10:14:30Z</time>
      </trkpt>
      <trkpt lat="49.15403" lon="7.47168">
        <ele>338.8706376388</ele>
        <time>2017-09-17T10:14:40Z</time>
      </trkpt>
      <trkpt lat="49.15411" lon="7.47177">
        <ele>339.84298199532</ele>
        <time>2017-09-17T10:14:49Z</time>
      </trkpt>
      <trkpt lat="49.15418" lon="7.47183">
        <ele>341.49656331865</ele>
        <time>2017-09-17T10:14:58Z</time>
      </trkpt>
      <trkpt lat="49.15427" lon="7.47188">
        <ele>343.1867276924</ele>
        <time>2017-09-17T10:15:07Z</time>
      </trkpt>
      <trkpt lat="49.15437" lon="7.4719">
        <ele>344.61306499558</ele>
        <time>2017-09-17T10:15:16Z</time>
      </trkpt>
      <trkpt lat="49.15446" lon="7.47191">
        <ele>346.25833468663</ele>
        <time>2017-09-17T10:15:25Z</time>
      </trkpt>
      <trkpt lat="49.15458" lon="7.47194">
        <ele>348.77646518955</ele>
        <time>2017-09-17T10:15:35Z</time>
      </trkpt>
      <trkpt lat="49.15469" lon="7.47194">
        <ele>351.31012046128</ele>
        <time>2017-09-17T10:15:45Z</time>
      </trkpt>
      <trkpt lat="49.15479" lon="7.47191">
        <ele>353.39426309425</ele>
        <time>2017-09-17T10:15:54Z</time>
      </trkpt>
      <trkpt lat="49.15489" lon="7.47189">
        <ele>355.22632956364</ele>
        <time>2017-09-17T10:16:03Z</time>
      </trkpt>
      <trkpt lat="49.15498" lon="7.47183">
        <ele>357.00936982587</ele>
        <time>2017-09-17T10:16:12Z</time>
      </trkpt>
      <trkpt lat="49.1551" lon="7.47177">
        <ele>359.01416136038</ele>
        <time>2017-09-17T10:16:22Z</time>
      </trkpt>
      <trkpt lat="49.15519" lon="7.4717">
        <ele>360.59716893057</ele>
        <time>2017-09-17T10:16:31Z</time>
      </trkpt>
      <trkpt lat="49.15529" lon="7.47165">
        <ele>361.98049560002</ele>
        <time>2017-09-17T10:16:40Z</time>
      </trkpt>
      <trkpt lat="49.15542" lon="7.47161">
        <ele>363.21292561713</ele>
        <time>2017-09-17T10:16:49Z</time>
      </trkpt>
      <trkpt lat="49.15555" lon="7.47157">
        <ele>363.80998121128</ele>
        <time>2017-09-17T10:16:58Z</time>
      </trkpt>
      <trkpt lat="49.15563" lon="7.47153">
        <ele>363.79936014811</ele>
        <time>2017-09-17T10:17:07Z</time>
      </trkpt>
      <trkpt lat="49.15579" lon="7.47145">
        <ele>363.8175613845</ele>
        <time>2017-09-17T10:17:17Z</time>
      </trkpt>
      <trkpt lat="49.15598" lon="7.47136">
        <ele>363.26613870153</ele>
        <time>2017-09-17T10:17:26Z</time>
      </trkpt>
      <trkpt lat="49.15607" lon="7.47131">
        <ele>361.65226727143</ele>
        <time>2017-09-17T10:17:35Z</time>
      </trkpt>
      <trkpt lat="49.15616" lon="7.47129">
        <ele>360.35822823657</ele>
        <time>2017-09-17T10:17:45Z</time>
      </trkpt>
      <trkpt lat="49.15624" lon="7.47126">
        <ele>360.03422895813</ele>
        <time>2017-09-17T10:17:54Z</time>
      </trkpt>
      <trkpt lat="49.15636" lon="7.47123">
        <ele>360.50730512551</ele>
        <time>2017-09-17T10:18:03Z</time>
      </trkpt>
      <trkpt lat="49.15648" lon="7.47118">
        <ele>361.45992851293</ele>
        <time>2017-09-17T10:18:13Z</time>
      </trkpt>
      <trkpt lat="49.15662" lon="7.47117">
        <ele>362.45816742422</ele>
        <time>2017-09-17T10:18:23Z</time>
      </trkpt>
      <trkpt lat="49.15674" lon="7.47117">
        <ele>363.00110112491</ele>
        <time>2017-09-17T10:18:32Z</time>
      </trkpt>
      <trkpt lat="49.15688" lon="7.4712">
        <ele>363.46243322428</ele>
        <time>2017-09-17T10:18:42Z</time>
      </trkpt>
      <trkpt lat="49.15699" lon="7.47121">
        <ele>363.75366704617</ele>
        <time>2017-09-17T10:18:51Z</time>
      </trkpt>
      <trkpt lat="49.1571" lon="7.47127">
        <ele>363.79825649486</ele>
        <time>2017-09-17T10:19:00Z</time>
      </trkpt>
      <trkpt lat="49.1572" lon="7.47131">
        <ele>363.59022904933</ele>
        <time>2017-09-17T10:19:09Z</time>
      </trkpt>
      <trkpt lat="49.15734" lon="7.47136">
        <ele>363.25736139982</ele>
        <time>2017-09-17T10:19:19Z</time>
      </trkpt>
      <trkpt lat="49.15747" lon="7.47147">
        <ele>362.30685170653</ele>
        <time>2017-09-17T10:19:29Z</time>
      </trkpt>
      <trkpt lat="49.15765" lon="7.47153">
        <ele>362.27334575224</ele>
        <time>2017-09-17T10:19:38Z</time>
      </trkpt>
      <trkpt lat="49.15773" lon="7.4716">
        <ele>363.03185778508</ele>
        <time>2017-09-17T10:19:48Z</time>
      </trkpt>
      <trkpt lat="49.15781" lon="7.47166">
        <ele>363.65270600857</ele>
        <time>2017-09-17T10:19:57Z</time>
      </trkpt>
      <trkpt lat="49.15789" lon="7.47174">
        <ele>363.85792201021</ele>
        <time>2017-09-17T10:20:06Z</time>
      </trkpt>
      <trkpt lat="49.15798" lon="7.47176">
        <ele>363.85960238265</ele>
        <time>2017-09-17T10:20:15Z</time>
      </trkpt>
      <trkpt lat="49.15813" lon="7.47179">
        <ele>363.61256041083</ele>
        <time>2017-09-17T10:20:25Z</time>
      </trkpt>
      <trkpt lat="49.15821" lon="7.47186">
        <ele>363.89245248537</ele>
        <time>2017-09-17T10:20:34Z</time>
      </trkpt>
      <trkpt lat="49.15834" lon="7.47185">
        <ele>363.97110588313</ele>
        <time>2017-09-17T10:20:44Z</time>
      </trkpt>
      <trkpt lat="49.15844" lon="7.47189">
        <ele>363.34417487181</ele>
        <time>2017-09-17T10:20:53Z</time>
      </trkpt>
      <trkpt lat="49.15856" lon="7.47192">
        <ele>363.04834978835</ele>
        <time>2017-09-17T10:21:02Z</time>
      </trkpt>
      <trkpt lat="49.15869" lon="7.47196">
        <ele>362.800513651</ele>
        <time>2017-09-17T10:21:12Z</time>
      </trkpt>
      <trkpt lat="49.15882" lon="7.47202">
        <ele>363.20355289365</ele>
        <time>2017-09-17T10:21:21Z</time>
      </trkpt>
      <trkpt lat="49.15893" lon="7.47206">
        <ele>364.09964107538</ele>
        <time>2017-09-17T10:21:31Z</time>
      </trkpt>
      <trkpt lat="49.15904" lon="7.47209">
        <ele>364.01381486669</ele>
        <time>2017-09-17T10:21:40Z</time>
      </trkpt>
      <trkpt lat="49.15917" lon="7.47213">
        <ele>363.91323911197</ele>
        <time>2017-09-17T10:21:50Z</time>
      </trkpt>
      <trkpt lat="49.15925" lon="7.47215">
        <ele>363.74163601994</ele>
        <time>2017-09-17T10:21:59Z</time>
      </trkpt>
      <trkpt lat="49.1594" lon="7.47221">
        <ele>363.55252508171</ele>
        <time>2017-09-17T10:22:09Z</time>
      </trkpt>
      <trkpt lat="49.15951" lon="7.47224">
        <ele>362.88002759648</ele>
        <time>2017-09-17T10:22:18Z</time>
      </trkpt>
      <trkpt lat="49.15961" lon="7.47227">
        <ele>361.96375208583</ele>
        <time>2017-09-17T10:22:28Z</time>
      </trkpt>
      <trkpt lat="49.15973" lon="7.47231">
        <ele>361.75493968854</ele>
        <time>2017-09-17T10:22:38Z</time>
      </trkpt>
      <trkpt lat="49.15986" lon="7.47237">
        <ele>361.65978745713</ele>
        <time>2017-09-17T10:22:47Z</time>
      </trkpt>
      <trkpt lat="49.15995" lon="7.4724">
        <ele>361.1014698109</ele>
        <time>2017-09-17T10:22:57Z</time>
      </trkpt>
      <trkpt lat="49.16004" lon="7.47247">
        <ele>360.78241964529</ele>
        <time>2017-09-17T10:23:06Z</time>
      </trkpt>
      <trkpt lat="49.16015" lon="7.47253">
        <ele>360.16526289895</ele>
        <time>2017-09-17T10:23:15Z</time>
      </trkpt>
      <trkpt lat="49.16026" lon="7.47259">
        <ele>359.59540597944</ele>
        <time>2017-09-17T10:23:25Z</time>
      </trkpt>
      <trkpt lat="49.16035" lon="7.47264">
        <ele>359.89422407832</ele>
        <time>2017-09-17T10:23:34Z</time>
      </trkpt>
      <trkpt lat="49.16044" lon="7.4727">
        <ele>360.46481365624</ele>
        <time>2017-09-17T10:23:43Z</time>
      </trkpt>
      <trkpt lat="49.16056" lon="7.47274">
        <ele>361.033400507</ele>
        <time>2017-09-17T10:23:53Z</time>
      </trkpt>
      <trkpt lat="49.16072" lon="7.47282">
        <ele>361.7470416374</ele>
        <time>2017-09-17T10:24:03Z</time>
      </trkpt>
      <trkpt lat="49.1608" lon="7.47288">
        <ele>362.37125834574</ele>
        <time>2017-09-17T10:24:13Z</time>
      </trkpt>
      <trkpt lat="49.16089" lon="7.47293">
        <ele>363.21243618344</ele>
        <time>2017-09-17T10:24:22Z</time>
      </trkpt>
      <trkpt lat="49.16097" lon="7.47296">
        <ele>363.79698482923</ele>
        <time>2017-09-17T10:24:31Z</time>
      </trkpt>
      <trkpt lat="49.16114" lon="7.47304">
        <ele>365.29445267344</ele>
        <time>2017-09-17T10:24:41Z</time>
      </trkpt>
      <trkpt lat="49.16122" lon="7.47309">
        <ele>366.9315508229</ele>
        <time>2017-09-17T10:24:51Z</time>
      </trkpt>
      <trkpt lat="49.16133" lon="7.47314">
        <ele>368.09161889496</ele>
        <time>2017-09-17T10:25:01Z</time>
      </trkpt>
      <trkpt lat="49.16141" lon="7.47318">
        <ele>368.0435543399</ele>
        <time>2017-09-17T10:25:30Z</time>
      </trkpt>
      <trkpt lat="49.16151" lon="7.47324">
        <ele>367.92024126024</ele>
        <time>2017-09-17T10:25:40Z</time>
      </trkpt>
      <trkpt lat="49.1616" lon="7.47326">
        <ele>367.20854363963</ele>
        <time>2017-09-17T10:26:07Z</time>
      </trkpt>
      <trkpt lat="49.16169" lon="7.47329">
        <ele>367.1704741532</ele>
        <time>2017-09-17T10:26:16Z</time>
      </trkpt>
      <trkpt lat="49.16186" lon="7.47336">
        <ele>366.86330989887</ele>
        <time>2017-09-17T10:26:26Z</time>
      </trkpt>
      <trkpt lat="49.16194" lon="7.47342">
        <ele>366.74727764046</ele>
        <time>2017-09-17T10:26:35Z</time>
      </trkpt>
      <trkpt lat="49.16201" lon="7.47347">
        <ele>366.40188287966</ele>
        <time>2017-09-17T10:26:46Z</time>
      </trkpt>
      <trkpt lat="49.16211" lon="7.47355">
        <ele>365.75981198296</ele>
        <time>2017-09-17T10:26:55Z</time>
      </trkpt>
      <trkpt lat="49.16223" lon="7.47363">
        <ele>365.66534385615</ele>
        <time>2017-09-17T10:27:05Z</time>
      </trkpt>
      <trkpt lat="49.16234" lon="7.47368">
        <ele>365.19602362562</ele>
        <time>2017-09-17T10:27:14Z</time>
      </trkpt>
      <trkpt lat="49.16243" lon="7.47373">
        <ele>364.57246559023</ele>
        <time>2017-09-17T10:27:23Z</time>
      </trkpt>
      <trkpt lat="49.16257" lon="7.47381">
        <ele>364.29137163246</ele>
        <time>2017-09-17T10:27:33Z</time>
      </trkpt>
      <trkpt lat="49.16268" lon="7.47384">
        <ele>364.04913359907</ele>
        <time>2017-09-17T10:27:42Z</time>
      </trkpt>
      <trkpt lat="49.1628" lon="7.47391">
        <ele>363.69482466205</ele>
        <time>2017-09-17T10:27:52Z</time>
      </trkpt>
      <trkpt lat="49.16291" lon="7.47392">
        <ele>363.26466516394</ele>
        <time>2017-09-17T10:28:00Z</time>
      </trkpt>
      <trkpt lat="49.16302" lon="7.47392">
        <ele>362.72240847468</ele>
        <time>2017-09-17T10:28:10Z</time>
      </trkpt>
      <trkpt lat="49.16314" lon="7.47394">
        <ele>362.38988468838</ele>
        <time>2017-09-17T10:28:19Z</time>
      </trkpt>
      <trkpt lat="49.16328" lon="7.47397">
        <ele>361.94980437228</ele>
        <time>2017-09-17T10:28:29Z</time>
      </trkpt>
      <trkpt lat="49.1634" lon="7.47398">
        <ele>361.32048311985</ele>
        <time>2017-09-17T10:28:38Z</time>
      </trkpt>
      <trkpt lat="49.16351" lon="7.47398">
        <ele>361.27490555948</ele>
        <time>2017-09-17T10:28:48Z</time>
      </trkpt>
      <trkpt lat="49.1636" lon="7.47398">
        <ele>361.4536491459</ele>
        <time>2017-09-17T10:28:57Z</time>
      </trkpt>
      <trkpt lat="49.1637" lon="7.47401">
        <ele>361.47949162414</ele>
        <time>2017-09-17T10:29:06Z</time>
      </trkpt>
      <trkpt lat="49.16382" lon="7.47404">
        <ele>361.41027573425</ele>
        <time>2017-09-17T10:29:15Z</time>
      </trkpt>
      <trkpt lat="49.16392" lon="7.47407">
        <ele>361.22349097849</ele>
        <time>2017-09-17T10:29:24Z</time>
      </trkpt>
      <trkpt lat="49.16406" lon="7.47411">
        <ele>361.97931631526</ele>
        <time>2017-09-17T10:29:33Z</time>
      </trkpt>
      <trkpt lat="49.16416" lon="7.47415">
        <ele>363.25788963232</ele>
        <time>2017-09-17T10:29:43Z</time>
      </trkpt>
      <trkpt lat="49.16429" lon="7.47421">
        <ele>364.1373734014</ele>
        <time>2017-09-17T10:29:53Z</time>
      </trkpt>
      <trkpt lat="49.16441" lon="7.47426">
        <ele>364.70726642229</ele>
        <time>2017-09-17T10:30:02Z</time>
      </trkpt>
      <trkpt lat="49.16448" lon="7.47431">
        <ele>364.40567182612</ele>
        <time>2017-09-17T10:30:13Z</time>
      </trkpt>
      <trkpt lat="49.1646" lon="7.47439">
        <ele>363.94117193441</ele>
        <time>2017-09-17T10:30:23Z</time>
      </trkpt>
      <trkpt lat="49.16471" lon="7.47443">
        <ele>363.53729038276</ele>
        <time>2017-09-17T10:30:33Z</time>
      </trkpt>
      <trkpt lat="49.16481" lon="7.47447">
        <ele>363.84814485328</ele>
        <time>2017-09-17T10:30:42Z</time>
      </trkpt>
      <trkpt lat="49.16494" lon="7.47455">
        <ele>364.28601864189</ele>
        <time>2017-09-17T10:30:52Z</time>
      </trkpt>
      <trkpt lat="49.16504" lon="7.47462">
        <ele>364.78452451878</ele>
        <time>2017-09-17T10:31:02Z</time>
      </trkpt>
      <trkpt lat="49.16515" lon="7.4747">
        <ele>364.71465846849</ele>
        <time>2017-09-17T10:31:11Z</time>
      </trkpt>
      <trkpt lat="49.16524" lon="7.4748">
        <ele>364.87663250636</ele>
        <time>2017-09-17T10:31:20Z</time>
      </trkpt>
      <trkpt lat="49.16533" lon="7.47488">
        <ele>365.18796401459</ele>
        <time>2017-09-17T10:31:29Z</time>
      </trkpt>
      <trkpt lat="49.16543" lon="7.47496">
        <ele>365.42641460078</ele>
        <time>2017-09-17T10:31:38Z</time>
      </trkpt>
      <trkpt lat="49.16552" lon="7.47505">
        <ele>365.75395484292</ele>
        <time>2017-09-17T10:31:48Z</time>
      </trkpt>
      <trkpt lat="49.16563" lon="7.47518">
        <ele>366.24912676479</ele>
        <time>2017-09-17T10:31:58Z</time>
      </trkpt>
      <trkpt lat="49.16571" lon="7.47524">
        <ele>366.82617801808</ele>
        <time>2017-09-17T10:32:08Z</time>
      </trkpt>
      <trkpt lat="49.16576" lon="7.47532">
        <ele>367.02760839824</ele>
        <time>2017-09-17T10:32:23Z</time>
      </trkpt>
      <trkpt lat="49.16588" lon="7.47538">
        <ele>367.23684347468</ele>
        <time>2017-09-17T10:32:33Z</time>
      </trkpt>
      <trkpt lat="49.16599" lon="7.4754">
        <ele>367.60197547536</ele>
        <time>2017-09-17T10:32:42Z</time>
      </trkpt>
      <trkpt lat="49.16611" lon="7.47539">
        <ele>368.03673554076</ele>
        <time>2017-09-17T10:32:52Z</time>
      </trkpt>
      <trkpt lat="49.16624" lon="7.47543">
        <ele>368.60952988943</ele>
        <time>2017-09-17T10:33:01Z</time>
      </trkpt>
      <trkpt lat="49.16637" lon="7.47545">
        <ele>368.88330697677</ele>
        <time>2017-09-17T10:33:10Z</time>
      </trkpt>
      <trkpt lat="49.16648" lon="7.47546">
        <ele>368.54489471139</ele>
        <time>2017-09-17T10:33:20Z</time>
      </trkpt>
      <trkpt lat="49.16658" lon="7.47547">
        <ele>368.46511962656</ele>
        <time>2017-09-17T10:33:29Z</time>
      </trkpt>
      <trkpt lat="49.1667" lon="7.47552">
        <ele>368.79864498571</ele>
        <time>2017-09-17T10:33:38Z</time>
      </trkpt>
      <trkpt lat="49.16682" lon="7.47556">
        <ele>369.31691228037</ele>
        <time>2017-09-17T10:33:48Z</time>
      </trkpt>
      <trkpt lat="49.16691" lon="7.47561">
        <ele>369.82677124719</ele>
        <time>2017-09-17T10:33:57Z</time>
      </trkpt>
      <trkpt lat="49.16705" lon="7.47567">
        <ele>369.77408941816</ele>
        <time>2017-09-17T10:34:07Z</time>
      </trkpt>
      <trkpt lat="49.1672" lon="7.47576">
        <ele>369.39074504166</ele>
        <time>2017-09-17T10:34:17Z</time>
      </trkpt>
      <trkpt lat="49.16731" lon="7.47581">
        <ele>369.34248287123</ele>
        <time>2017-09-17T10:34:26Z</time>
      </trkpt>
      <trkpt lat="49.1674" lon="7.47588">
        <ele>369.41196014539</ele>
        <time>2017-09-17T10:34:35Z</time>
      </trkpt>
      <trkpt lat="49.1675" lon="7.47596">
        <ele>369.30272586838</ele>
        <time>2017-09-17T10:34:45Z</time>
      </trkpt>
      <trkpt lat="49.1676" lon="7.47602">
        <ele>369.47375204911</ele>
        <time>2017-09-17T10:34:54Z</time>
      </trkpt>
      <trkpt lat="49.16767" lon="7.47609">
        <ele>369.66969455971</ele>
        <time>2017-09-17T10:35:12Z</time>
      </trkpt>
      <trkpt lat="49.16777" lon="7.47616">
        <ele>369.71777462417</ele>
        <time>2017-09-17T10:35:21Z</time>
      </trkpt>
      <trkpt lat="49.16789" lon="7.47623">
        <ele>369.63524777651</ele>
        <time>2017-09-17T10:35:30Z</time>
      </trkpt>
      <trkpt lat="49.16802" lon="7.47629">
        <ele>369.31274581584</ele>
        <time>2017-09-17T10:35:40Z</time>
      </trkpt>
      <trkpt lat="49.16811" lon="7.47634">
        <ele>368.88194973054</ele>
        <time>2017-09-17T10:35:49Z</time>
      </trkpt>
      <trkpt lat="49.1682" lon="7.47641">
        <ele>368.58124495207</ele>
        <time>2017-09-17T10:35:59Z</time>
      </trkpt>
      <trkpt lat="49.16833" lon="7.47647">
        <ele>368.34608767744</ele>
        <time>2017-09-17T10:36:08Z</time>
      </trkpt>
      <trkpt lat="49.16844" lon="7.4765">
        <ele>368.14963663582</ele>
        <time>2017-09-17T10:36:18Z</time>
      </trkpt>
      <trkpt lat="49.16857" lon="7.47658">
        <ele>367.62560449529</ele>
        <time>2017-09-17T10:36:28Z</time>
      </trkpt>
      <trkpt lat="49.16867" lon="7.47664">
        <ele>367.50903021733</ele>
        <time>2017-09-17T10:36:37Z</time>
      </trkpt>
      <trkpt lat="49.16878" lon="7.47667">
        <ele>367.84755368196</ele>
        <time>2017-09-17T10:36:46Z</time>
      </trkpt>
      <trkpt lat="49.1689" lon="7.47671">
        <ele>367.76498866133</ele>
        <time>2017-09-17T10:36:55Z</time>
      </trkpt>
      <trkpt lat="49.16904" lon="7.47679">
        <ele>366.94140572271</ele>
        <time>2017-09-17T10:37:05Z</time>
      </trkpt>
      <trkpt lat="49.16914" lon="7.47676">
        <ele>366.42307941737</ele>
        <time>2017-09-17T10:37:15Z</time>
      </trkpt>
      <trkpt lat="49.16932" lon="7.47673">
        <ele>367.04569797102</ele>
        <time>2017-09-17T10:37:25Z</time>
      </trkpt>
      <trkpt lat="49.16943" lon="7.47675">
        <ele>367.97996328231</ele>
        <time>2017-09-17T10:37:35Z</time>
      </trkpt>
      <trkpt lat="49.16953" lon="7.47675">
        <ele>368.73911181752</ele>
        <time>2017-09-17T10:37:44Z</time>
      </trkpt>
      <trkpt lat="49.16963" lon="7.47679">
        <ele>369.39647733944</ele>
        <time>2017-09-17T10:37:54Z</time>
      </trkpt>
      <trkpt lat="49.16974" lon="7.47679">
        <ele>369.40661402814</ele>
        <time>2017-09-17T10:38:03Z</time>
      </trkpt>
      <trkpt lat="49.16984" lon="7.47676">
        <ele>369.3272907801</ele>
        <time>2017-09-17T10:38:12Z</time>
      </trkpt>
      <trkpt lat="49.16993" lon="7.47677">
        <ele>369.0077437813</ele>
        <time>2017-09-17T10:38:22Z</time>
      </trkpt>
      <trkpt lat="49.17007" lon="7.47676">
        <ele>369.12486985796</ele>
        <time>2017-09-17T10:38:32Z</time>
      </trkpt>
      <trkpt lat="49.17016" lon="7.47675">
        <ele>369.05861474032</ele>
        <time>2017-09-17T10:38:44Z</time>
      </trkpt>
      <trkpt lat="49.17023" lon="7.47681">
        <ele>369.40495941791</ele>
        <time>2017-09-17T10:39:05Z</time>
      </trkpt>
      <trkpt lat="49.17028" lon="7.47672">
        <ele>368.10269004202</ele>
        <time>2017-09-17T10:47:59Z</time>
      </trkpt>
      <trkpt lat="49.17039" lon="7.4767">
        <ele>368.10256930819</ele>
        <time>2017-09-17T10:48:09Z</time>
      </trkpt>
      <trkpt lat="49.17049" lon="7.4767">
        <ele>367.83997379032</ele>
        <time>2017-09-17T10:48:18Z</time>
      </trkpt>
      <trkpt lat="49.17061" lon="7.47668">
        <ele>367.33644100956</ele>
        <time>2017-09-17T10:48:27Z</time>
      </trkpt>
      <trkpt lat="49.17072" lon="7.47662">
        <ele>367.05356776749</ele>
        <time>2017-09-17T10:48:37Z</time>
      </trkpt>
      <trkpt lat="49.17082" lon="7.4765">
        <ele>366.97965109014</ele>
        <time>2017-09-17T10:48:46Z</time>
      </trkpt>
      <trkpt lat="49.17084" lon="7.47626">
        <ele>366.59438752402</ele>
        <time>2017-09-17T10:48:56Z</time>
      </trkpt>
      <trkpt lat="49.17088" lon="7.47607">
        <ele>366.21823773084</ele>
        <time>2017-09-17T10:49:05Z</time>
      </trkpt>
      <trkpt lat="49.17093" lon="7.47586">
        <ele>366.15451810705</ele>
        <time>2017-09-17T10:49:15Z</time>
      </trkpt>
      <trkpt lat="49.17097" lon="7.47569">
        <ele>365.89883959745</ele>
        <time>2017-09-17T10:49:24Z</time>
      </trkpt>
      <trkpt lat="49.17099" lon="7.47552">
        <ele>365.61976882197</ele>
        <time>2017-09-17T10:49:33Z</time>
      </trkpt>
      <trkpt lat="49.17102" lon="7.47529">
        <ele>365.30915994361</ele>
        <time>2017-09-17T10:49:43Z</time>
      </trkpt>
      <trkpt lat="49.17106" lon="7.47508">
        <ele>365.44231037088</ele>
        <time>2017-09-17T10:49:53Z</time>
      </trkpt>
      <trkpt lat="49.1711" lon="7.47494">
        <ele>365.47041217262</ele>
        <time>2017-09-17T10:50:02Z</time>
      </trkpt>
      <trkpt lat="49.17114" lon="7.47475">
        <ele>365.06469654608</ele>
        <time>2017-09-17T10:50:11Z</time>
      </trkpt>
      <trkpt lat="49.17118" lon="7.47458">
        <ele>364.44766230129</ele>
        <time>2017-09-17T10:50:20Z</time>
      </trkpt>
      <trkpt lat="49.1712" lon="7.47438">
        <ele>363.92082526415</ele>
        <time>2017-09-17T10:50:30Z</time>
      </trkpt>
      <trkpt lat="49.17123" lon="7.47416">
        <ele>363.44655069067</ele>
        <time>2017-09-17T10:50:40Z</time>
      </trkpt>
      <trkpt lat="49.17126" lon="7.47393">
        <ele>363.13778056323</ele>
        <time>2017-09-17T10:50:49Z</time>
      </trkpt>
      <trkpt lat="49.17129" lon="7.47378">
        <ele>362.97145046391</ele>
        <time>2017-09-17T10:50:58Z</time>
      </trkpt>
      <trkpt lat="49.17132" lon="7.47357">
        <ele>362.81426427321</ele>
        <time>2017-09-17T10:51:07Z</time>
      </trkpt>
      <trkpt lat="49.17136" lon="7.4734">
        <ele>362.56456103515</ele>
        <time>2017-09-17T10:51:16Z</time>
      </trkpt>
      <trkpt lat="49.17139" lon="7.47316">
        <ele>362.89913228181</ele>
        <time>2017-09-17T10:51:25Z</time>
      </trkpt>
      <trkpt lat="49.17143" lon="7.47296">
        <ele>363.04574101929</ele>
        <time>2017-09-17T10:51:35Z</time>
      </trkpt>
      <trkpt lat="49.17147" lon="7.47277">
        <ele>362.81737125119</ele>
        <time>2017-09-17T10:51:44Z</time>
      </trkpt>
      <trkpt lat="49.17149" lon="7.47259">
        <ele>362.37063564503</ele>
        <time>2017-09-17T10:51:53Z</time>
      </trkpt>
      <trkpt lat="49.17155" lon="7.47239">
        <ele>361.88907870168</ele>
        <time>2017-09-17T10:52:03Z</time>
      </trkpt>
      <trkpt lat="49.17161" lon="7.47218">
        <ele>361.88910183278</ele>
        <time>2017-09-17T10:52:13Z</time>
      </trkpt>
      <trkpt lat="49.17167" lon="7.47197">
        <ele>362.31175549789</ele>
        <time>2017-09-17T10:52:22Z</time>
      </trkpt>
      <trkpt lat="49.17175" lon="7.4718">
        <ele>363.07608673285</ele>
        <time>2017-09-17T10:52:31Z</time>
      </trkpt>
      <trkpt lat="49.17185" lon="7.47162">
        <ele>363.80080157976</ele>
        <time>2017-09-17T10:52:41Z</time>
      </trkpt>
      <trkpt lat="49.17192" lon="7.47147">
        <ele>364.51474542148</ele>
        <time>2017-09-17T10:52:50Z</time>
      </trkpt>
      <trkpt lat="49.172" lon="7.47135">
        <ele>364.94918999846</ele>
        <time>2017-09-17T10:52:59Z</time>
      </trkpt>
      <trkpt lat="49.17207" lon="7.47118">
        <ele>364.99556781807</ele>
        <time>2017-09-17T10:53:08Z</time>
      </trkpt>
      <trkpt lat="49.17215" lon="7.47103">
        <ele>364.90985366062</ele>
        <time>2017-09-17T10:53:18Z</time>
      </trkpt>
      <trkpt lat="49.17222" lon="7.47087">
        <ele>364.70766040677</ele>
        <time>2017-09-17T10:53:27Z</time>
      </trkpt>
      <trkpt lat="49.17228" lon="7.4707">
        <ele>364.55508779855</ele>
        <time>2017-09-17T10:53:37Z</time>
      </trkpt>
      <trkpt lat="49.17235" lon="7.47053">
        <ele>364.54020044313</ele>
        <time>2017-09-17T10:53:47Z</time>
      </trkpt>
      <trkpt lat="49.17242" lon="7.47035">
        <ele>364.8478960475</ele>
        <time>2017-09-17T10:53:56Z</time>
      </trkpt>
      <trkpt lat="49.17253" lon="7.47021">
        <ele>365.15207937234</ele>
        <time>2017-09-17T10:54:06Z</time>
      </trkpt>
      <trkpt lat="49.1726" lon="7.47009">
        <ele>364.99953219582</ele>
        <time>2017-09-17T10:54:15Z</time>
      </trkpt>
      <trkpt lat="49.17268" lon="7.46994">
        <ele>364.21749532224</ele>
        <time>2017-09-17T10:54:24Z</time>
      </trkpt>
      <trkpt lat="49.17274" lon="7.46975">
        <ele>363.43719262012</ele>
        <time>2017-09-17T10:54:33Z</time>
      </trkpt>
      <trkpt lat="49.1728" lon="7.46956">
        <ele>362.93072316592</ele>
        <time>2017-09-17T10:54:42Z</time>
      </trkpt>
      <trkpt lat="49.17284" lon="7.46932">
        <ele>362.79182260599</ele>
        <time>2017-09-17T10:54:52Z</time>
      </trkpt>
      <trkpt lat="49.17287" lon="7.46915">
        <ele>362.91030071998</ele>
        <time>2017-09-17T10:55:01Z</time>
      </trkpt>
      <trkpt lat="49.17289" lon="7.46893">
        <ele>362.77447914025</ele>
        <time>2017-09-17T10:55:10Z</time>
      </trkpt>
      <trkpt lat="49.17289" lon="7.46869">
        <ele>362.62657789736</ele>
        <time>2017-09-17T10:55:20Z</time>
      </trkpt>
      <trkpt lat="49.17291" lon="7.46853">
        <ele>362.61126092753</ele>
        <time>2017-09-17T10:55:29Z</time>
      </trkpt>
      <trkpt lat="49.17292" lon="7.46833">
        <ele>362.10133064364</ele>
        <time>2017-09-17T10:55:39Z</time>
      </trkpt>
      <trkpt lat="49.17292" lon="7.46816">
        <ele>361.36234279754</ele>
        <time>2017-09-17T10:55:48Z</time>
      </trkpt>
      <trkpt lat="49.17292" lon="7.46794">
        <ele>360.73065872533</ele>
        <time>2017-09-17T10:55:58Z</time>
      </trkpt>
      <trkpt lat="49.17292" lon="7.46774">
        <ele>360.37035368799</ele>
        <time>2017-09-17T10:56:07Z</time>
      </trkpt>
      <trkpt lat="49.17294" lon="7.46755">
        <ele>359.95377913053</ele>
        <time>2017-09-17T10:56:17Z</time>
      </trkpt>
      <trkpt lat="49.17295" lon="7.46732">
        <ele>360.28781970627</ele>
        <time>2017-09-17T10:56:26Z</time>
      </trkpt>
      <trkpt lat="49.17296" lon="7.46709">
        <ele>360.83769144232</ele>
        <time>2017-09-17T10:56:36Z</time>
      </trkpt>
      <trkpt lat="49.17296" lon="7.4669">
        <ele>361.12275221341</ele>
        <time>2017-09-17T10:56:45Z</time>
      </trkpt>
      <trkpt lat="49.17299" lon="7.46666">
        <ele>361.63908436167</ele>
        <time>2017-09-17T10:56:55Z</time>
      </trkpt>
      <trkpt lat="49.173" lon="7.46649">
        <ele>361.77366205931</ele>
        <time>2017-09-17T10:57:04Z</time>
      </trkpt>
      <trkpt lat="49.17302" lon="7.46625">
        <ele>362.16695023093</ele>
        <time>2017-09-17T10:57:14Z</time>
      </trkpt>
      <trkpt lat="49.17304" lon="7.46611">
        <ele>362.30847780247</ele>
        <time>2017-09-17T10:57:23Z</time>
      </trkpt>
      <trkpt lat="49.17304" lon="7.46588">
        <ele>362.19718876895</ele>
        <time>2017-09-17T10:57:33Z</time>
      </trkpt>
      <trkpt lat="49.17306" lon="7.46574">
        <ele>360.91825129812</ele>
        <time>2017-09-17T10:57:42Z</time>
      </trkpt>
      <trkpt lat="49.17308" lon="7.46559">
        <ele>359.41152235208</ele>
        <time>2017-09-17T10:57:51Z</time>
      </trkpt>
      <trkpt lat="49.17309" lon="7.46538">
        <ele>357.94313930717</ele>
        <time>2017-09-17T10:58:01Z</time>
      </trkpt>
      <trkpt lat="49.17312" lon="7.46517">
        <ele>356.43982392199</ele>
        <time>2017-09-17T10:58:11Z</time>
      </trkpt>
      <trkpt lat="49.17313" lon="7.46498">
        <ele>355.48329236875</ele>
        <time>2017-09-17T10:58:20Z</time>
      </trkpt>
      <trkpt lat="49.17312" lon="7.46474">
        <ele>355.0281187397</ele>
        <time>2017-09-17T10:58:29Z</time>
      </trkpt>
      <trkpt lat="49.17311" lon="7.46454">
        <ele>355.33619498374</ele>
        <time>2017-09-17T10:58:38Z</time>
      </trkpt>
      <trkpt lat="49.17314" lon="7.46438">
        <ele>355.32172421193</ele>
        <time>2017-09-17T10:58:47Z</time>
      </trkpt>
      <trkpt lat="49.17317" lon="7.46416">
        <ele>354.62766159771</ele>
        <time>2017-09-17T10:58:57Z</time>
      </trkpt>
      <trkpt lat="49.17319" lon="7.46397">
        <ele>353.7764545814</ele>
        <time>2017-09-17T10:59:06Z</time>
      </trkpt>
      <trkpt lat="49.17319" lon="7.46376">
        <ele>352.70322170582</ele>
        <time>2017-09-17T10:59:16Z</time>
      </trkpt>
      <trkpt lat="49.1732" lon="7.46358">
        <ele>351.67129241236</ele>
        <time>2017-09-17T10:59:25Z</time>
      </trkpt>
      <trkpt lat="49.17322" lon="7.46334">
        <ele>351.13783584916</ele>
        <time>2017-09-17T10:59:34Z</time>
      </trkpt>
      <trkpt lat="49.17321" lon="7.46313">
        <ele>351.06108436296</ele>
        <time>2017-09-17T10:59:43Z</time>
      </trkpt>
      <trkpt lat="49.17321" lon="7.46292">
        <ele>351.63107037157</ele>
        <time>2017-09-17T10:59:52Z</time>
      </trkpt>
      <trkpt lat="49.17323" lon="7.46278">
        <ele>351.47889282689</ele>
        <time>2017-09-17T11:00:02Z</time>
      </trkpt>
      <trkpt lat="49.17324" lon="7.46258">
        <ele>351.02700299848</ele>
        <time>2017-09-17T11:00:11Z</time>
      </trkpt>
      <trkpt lat="49.17325" lon="7.46241">
        <ele>350.7052687031</ele>
        <time>2017-09-17T11:00:20Z</time>
      </trkpt>
      <trkpt lat="49.1733" lon="7.46223">
        <ele>349.78123968392</ele>
        <time>2017-09-17T11:00:30Z</time>
      </trkpt>
      <trkpt lat="49.17333" lon="7.46203">
        <ele>348.78349282128</ele>
        <time>2017-09-17T11:00:40Z</time>
      </trkpt>
      <trkpt lat="49.17336" lon="7.46184">
        <ele>347.7204739837</ele>
        <time>2017-09-17T11:00:50Z</time>
      </trkpt>
      <trkpt lat="49.17337" lon="7.46169">
        <ele>346.30317511284</ele>
        <time>2017-09-17T11:00:59Z</time>
      </trkpt>
      <trkpt lat="49.17338" lon="7.4615">
        <ele>344.75696223034</ele>
        <time>2017-09-17T11:01:08Z</time>
      </trkpt>
      <trkpt lat="49.17339" lon="7.46131">
        <ele>343.60540073686</ele>
        <time>2017-09-17T11:01:17Z</time>
      </trkpt>
      <trkpt lat="49.1734" lon="7.4611">
        <ele>342.70996500906</ele>
        <time>2017-09-17T11:01:26Z</time>
      </trkpt>
      <trkpt lat="49.17342" lon="7.46088">
        <ele>342.00935908706</ele>
        <time>2017-09-17T11:01:36Z</time>
      </trkpt>
      <trkpt lat="49.17344" lon="7.46068">
        <ele>341.13542740912</ele>
        <time>2017-09-17T11:01:46Z</time>
      </trkpt>
      <trkpt lat="49.17346" lon="7.46053">
        <ele>339.88419496236</ele>
        <time>2017-09-17T11:01:55Z</time>
      </trkpt>
      <trkpt lat="49.17343" lon="7.4603">
        <ele>338.98503005808</ele>
        <time>2017-09-17T11:02:04Z</time>
      </trkpt>
      <trkpt lat="49.17343" lon="7.46011">
        <ele>338.42907133199</ele>
        <time>2017-09-17T11:02:13Z</time>
      </trkpt>
      <trkpt lat="49.17346" lon="7.45992">
        <ele>337.87699325152</ele>
        <time>2017-09-17T11:02:22Z</time>
      </trkpt>
      <trkpt lat="49.17347" lon="7.4597">
        <ele>337.055239699</ele>
        <time>2017-09-17T11:02:32Z</time>
      </trkpt>
      <trkpt lat="49.17349" lon="7.45953">
        <ele>336.62058747162</ele>
        <time>2017-09-17T11:02:41Z</time>
      </trkpt>
      <trkpt lat="49.1735" lon="7.45932">
        <ele>335.95156115664</ele>
        <time>2017-09-17T11:02:51Z</time>
      </trkpt>
      <trkpt lat="49.17353" lon="7.4591">
        <ele>335.93133440229</ele>
        <time>2017-09-17T11:03:00Z</time>
      </trkpt>
      <trkpt lat="49.17353" lon="7.45895">
        <ele>335.80775338266</ele>
        <time>2017-09-17T11:03:09Z</time>
      </trkpt>
      <trkpt lat="49.17355" lon="7.45871">
        <ele>336.10546875548</ele>
        <time>2017-09-17T11:03:19Z</time>
      </trkpt>
      <trkpt lat="49.17357" lon="7.45853">
        <ele>336.27907732709</ele>
        <time>2017-09-17T11:03:28Z</time>
      </trkpt>
      <trkpt lat="49.1736" lon="7.45836">
        <ele>335.96584330942</ele>
        <time>2017-09-17T11:03:38Z</time>
      </trkpt>
      <trkpt lat="49.17362" lon="7.45817">
        <ele>335.37216947439</ele>
        <time>2017-09-17T11:03:47Z</time>
      </trkpt>
      <trkpt lat="49.17365" lon="7.45798">
        <ele>334.62603562625</ele>
        <time>2017-09-17T11:03:56Z</time>
      </trkpt>
      <trkpt lat="49.17364" lon="7.45779">
        <ele>334.14970007133</ele>
        <time>2017-09-17T11:04:06Z</time>
      </trkpt>
      <trkpt lat="49.17364" lon="7.45755">
        <ele>333.98766190021</ele>
        <time>2017-09-17T11:04:16Z</time>
      </trkpt>
      <trkpt lat="49.17368" lon="7.45742">
        <ele>333.71304254437</ele>
        <time>2017-09-17T11:04:25Z</time>
      </trkpt>
      <trkpt lat="49.17369" lon="7.45721">
        <ele>333.15384602042</ele>
        <time>2017-09-17T11:04:35Z</time>
      </trkpt>
      <trkpt lat="49.17369" lon="7.45701">
        <ele>333.12479098881</ele>
        <time>2017-09-17T11:04:44Z</time>
      </trkpt>
      <trkpt lat="49.17371" lon="7.45678">
        <ele>333.39878355189</ele>
        <time>2017-09-17T11:04:54Z</time>
      </trkpt>
      <trkpt lat="49.1737" lon="7.45658">
        <ele>333.74374820017</ele>
        <time>2017-09-17T11:05:03Z</time>
      </trkpt>
      <trkpt lat="49.17372" lon="7.45644">
        <ele>333.90014111607</ele>
        <time>2017-09-17T11:05:12Z</time>
      </trkpt>
      <trkpt lat="49.17373" lon="7.45623">
        <ele>333.84418562144</ele>
        <time>2017-09-17T11:05:21Z</time>
      </trkpt>
      <trkpt lat="49.17376" lon="7.45607">
        <ele>333.63402038509</ele>
        <time>2017-09-17T11:05:30Z</time>
      </trkpt>
      <trkpt lat="49.17379" lon="7.45587">
        <ele>333.274578182</ele>
        <time>2017-09-17T11:05:40Z</time>
      </trkpt>
      <trkpt lat="49.1738" lon="7.45567">
        <ele>332.99421361471</ele>
        <time>2017-09-17T11:05:50Z</time>
      </trkpt>
      <trkpt lat="49.17381" lon="7.45544">
        <ele>333.22776327158</ele>
        <time>2017-09-17T11:06:00Z</time>
      </trkpt>
      <trkpt lat="49.17385" lon="7.4553">
        <ele>333.42588981326</ele>
        <time>2017-09-17T11:06:09Z</time>
      </trkpt>
      <trkpt lat="49.17389" lon="7.4551">
        <ele>333.49531820798</ele>
        <time>2017-09-17T11:06:19Z</time>
      </trkpt>
      <trkpt lat="49.17393" lon="7.45495">
        <ele>333.82432685359</ele>
        <time>2017-09-17T11:06:28Z</time>
      </trkpt>
      <trkpt lat="49.17398" lon="7.45481">
        <ele>334.15000275875</ele>
        <time>2017-09-17T11:06:38Z</time>
      </trkpt>
      <trkpt lat="49.17404" lon="7.45465">
        <ele>334.0871836462</ele>
        <time>2017-09-17T11:06:47Z</time>
      </trkpt>
      <trkpt lat="49.1741" lon="7.45451">
        <ele>333.55139743521</ele>
        <time>2017-09-17T11:06:57Z</time>
      </trkpt>
      <trkpt lat="49.17417" lon="7.45432">
        <ele>332.83304822239</ele>
        <time>2017-09-17T11:07:07Z</time>
      </trkpt>
      <trkpt lat="49.17425" lon="7.45412">
        <ele>332.32803675989</ele>
        <time>2017-09-17T11:07:17Z</time>
      </trkpt>
      <trkpt lat="49.1743" lon="7.45397">
        <ele>332.22719967395</ele>
        <time>2017-09-17T11:07:26Z</time>
      </trkpt>
      <trkpt lat="49.17434" lon="7.45377">
        <ele>332.60395178398</ele>
        <time>2017-09-17T11:07:36Z</time>
      </trkpt>
      <trkpt lat="49.17439" lon="7.45359">
        <ele>333.21790281434</ele>
        <time>2017-09-17T11:07:45Z</time>
      </trkpt>
      <trkpt lat="49.17449" lon="7.45346">
        <ele>333.94461948654</ele>
        <time>2017-09-17T11:07:54Z</time>
      </trkpt>
      <trkpt lat="49.17452" lon="7.4533">
        <ele>334.55016880448</ele>
        <time>2017-09-17T11:08:03Z</time>
      </trkpt>
      <trkpt lat="49.17459" lon="7.45307">
        <ele>335.74514562923</ele>
        <time>2017-09-17T11:08:13Z</time>
      </trkpt>
      <trkpt lat="49.17466" lon="7.45289">
        <ele>336.87080871855</ele>
        <time>2017-09-17T11:08:22Z</time>
      </trkpt>
      <trkpt lat="49.1747" lon="7.45274">
        <ele>338.38190924351</ele>
        <time>2017-09-17T11:08:32Z</time>
      </trkpt>
      <trkpt lat="49.17478" lon="7.45256">
        <ele>339.58371729939</ele>
        <time>2017-09-17T11:08:41Z</time>
      </trkpt>
      <trkpt lat="49.17486" lon="7.45241">
        <ele>340.6731233698</ele>
        <time>2017-09-17T11:08:50Z</time>
      </trkpt>
      <trkpt lat="49.17497" lon="7.45229">
        <ele>341.6700796501</ele>
        <time>2017-09-17T11:09:00Z</time>
      </trkpt>
      <trkpt lat="49.17506" lon="7.45217">
        <ele>342.37616221625</ele>
        <time>2017-09-17T11:09:09Z</time>
      </trkpt>
      <trkpt lat="49.17516" lon="7.45206">
        <ele>342.69869401421</ele>
        <time>2017-09-17T11:09:19Z</time>
      </trkpt>
      <trkpt lat="49.17524" lon="7.45193">
        <ele>342.35229776237</ele>
        <time>2017-09-17T11:09:28Z</time>
      </trkpt>
      <trkpt lat="49.17532" lon="7.45183">
        <ele>342.01100134457</ele>
        <time>2017-09-17T11:09:37Z</time>
      </trkpt>
      <trkpt lat="49.17542" lon="7.4517">
        <ele>341.61250483069</ele>
        <time>2017-09-17T11:09:46Z</time>
      </trkpt>
      <trkpt lat="49.17551" lon="7.45157">
        <ele>341.2767500538</ele>
        <time>2017-09-17T11:09:55Z</time>
      </trkpt>
      <trkpt lat="49.17564" lon="7.45143">
        <ele>340.53532725838</ele>
        <time>2017-09-17T11:10:05Z</time>
      </trkpt>
      <trkpt lat="49.17575" lon="7.45138">
        <ele>339.65007340918</ele>
        <time>2017-09-17T11:10:14Z</time>
      </trkpt>
      <trkpt lat="49.1759" lon="7.45129">
        <ele>338.75277131248</ele>
        <time>2017-09-17T11:10:24Z</time>
      </trkpt>
      <trkpt lat="49.17601" lon="7.45122">
        <ele>337.99410224787</ele>
        <time>2017-09-17T11:10:33Z</time>
      </trkpt>
      <trkpt lat="49.17614" lon="7.45113">
        <ele>336.99992278517</ele>
        <time>2017-09-17T11:10:43Z</time>
      </trkpt>
      <trkpt lat="49.17627" lon="7.45104">
        <ele>335.97781375627</ele>
        <time>2017-09-17T11:10:52Z</time>
      </trkpt>
      <trkpt lat="49.17637" lon="7.45099">
        <ele>334.90704460454</ele>
        <time>2017-09-17T11:11:01Z</time>
      </trkpt>
      <trkpt lat="49.1765" lon="7.4509">
        <ele>334.29323340562</ele>
        <time>2017-09-17T11:11:11Z</time>
      </trkpt>
      <trkpt lat="49.17661" lon="7.45078">
        <ele>334.1812197584</ele>
        <time>2017-09-17T11:11:21Z</time>
      </trkpt>
      <trkpt lat="49.17671" lon="7.45071">
        <ele>334.01886877404</ele>
        <time>2017-09-17T11:11:30Z</time>
      </trkpt>
      <trkpt lat="49.17682" lon="7.45058">
        <ele>333.65311993572</ele>
        <time>2017-09-17T11:11:40Z</time>
      </trkpt>
      <trkpt lat="49.17691" lon="7.45047">
        <ele>332.87090233718</ele>
        <time>2017-09-17T11:11:49Z</time>
      </trkpt>
      <trkpt lat="49.17702" lon="7.45037">
        <ele>332.22720940698</ele>
        <time>2017-09-17T11:11:58Z</time>
      </trkpt>
      <trkpt lat="49.17708" lon="7.45024">
        <ele>331.4841139005</ele>
        <time>2017-09-17T11:12:07Z</time>
      </trkpt>
      <trkpt lat="49.17714" lon="7.45013">
        <ele>330.41999801429</ele>
        <time>2017-09-17T11:12:16Z</time>
      </trkpt>
      <trkpt lat="49.17724" lon="7.44999">
        <ele>329.37985500679</ele>
        <time>2017-09-17T11:12:26Z</time>
      </trkpt>
      <trkpt lat="49.17733" lon="7.44986">
        <ele>328.91927624971</ele>
        <time>2017-09-17T11:12:36Z</time>
      </trkpt>
      <trkpt lat="49.17743" lon="7.44972">
        <ele>328.22484693611</ele>
        <time>2017-09-17T11:12:46Z</time>
      </trkpt>
      <trkpt lat="49.17753" lon="7.44958">
        <ele>327.54243241472</ele>
        <time>2017-09-17T11:12:55Z</time>
      </trkpt>
      <trkpt lat="49.17761" lon="7.44942">
        <ele>326.73274769395</ele>
        <time>2017-09-17T11:13:05Z</time>
      </trkpt>
      <trkpt lat="49.17766" lon="7.44927">
        <ele>326.04835552179</ele>
        <time>2017-09-17T11:13:14Z</time>
      </trkpt>
      <trkpt lat="49.17776" lon="7.44914">
        <ele>325.72308886517</ele>
        <time>2017-09-17T11:13:24Z</time>
      </trkpt>
      <trkpt lat="49.1778" lon="7.44896">
        <ele>324.75684502072</ele>
        <time>2017-09-17T11:13:34Z</time>
      </trkpt>
      <trkpt lat="49.17779" lon="7.4488">
        <ele>323.73550504403</ele>
        <time>2017-09-17T11:13:43Z</time>
      </trkpt>
      <trkpt lat="49.17765" lon="7.44879">
        <ele>322.70199779912</ele>
        <time>2017-09-17T11:13:52Z</time>
      </trkpt>
      <trkpt lat="49.17749" lon="7.44882">
        <ele>321.86659769647</ele>
        <time>2017-09-17T11:14:02Z</time>
      </trkpt>
      <trkpt lat="49.17738" lon="7.44877">
        <ele>321.73474161336</ele>
        <time>2017-09-17T11:14:11Z</time>
      </trkpt>
      <trkpt lat="49.1774" lon="7.44864">
        <ele>323.36501841286</ele>
        <time>2017-09-17T11:14:25Z</time>
      </trkpt>
      <trkpt lat="49.17739" lon="7.44846">
        <ele>324.57708039732</ele>
        <time>2017-09-17T11:14:35Z</time>
      </trkpt>
      <trkpt lat="49.17737" lon="7.44833">
        <ele>324.15493409294</ele>
        <time>2017-09-17T11:14:47Z</time>
      </trkpt>
      <trkpt lat="49.1774" lon="7.44845">
        <ele>319.92700457719</ele>
        <time>2017-09-17T11:15:49Z</time>
      </trkpt>
      <trkpt lat="49.17741" lon="7.44846">
        <ele>318.20520330226</ele>
        <time>2017-09-17T11:16:25Z</time>
      </trkpt>
      <trkpt lat="49.17741" lon="7.44846">
        <ele>318.20520330226</ele>
        <time>2017-09-17T11:16:25Z</time>
      </trkpt>
    </trkseg>
  </trk>
</gpx>